
Distance (Route):
Temperature : 8.1°C
Humidity : 70.7%
Pressure : 0hPa| Receiver | Frames | First received | Last received |
|---|---|---|---|
| DL9RDZ-1 | 380 | 2026-08-30 23:04:23 | 2026-08-31 00:33:59 |
| Receiver | Date | Latitude | Longitude | Direction | Speed | Altitude | Climb | Temperature | Humidity | Pressure | Voltage | Killtimer | Uptime | BKT | XDATA |
|---|---|---|---|---|---|---|---|---|---|---|---|---|---|---|---|
| DL9RDZ-1 | 2026-08-31 00:33:59 | 64.03972 | -22.31713 | 283° | 24km/h | 219m | -13.3m/s | 8.1°C | 70.7% | 0hPa | 0V | 08:12:00 | 00:00:00 | 00:00:00 | |
| DL9RDZ-1 | 2026-08-31 00:33:46 | 64.03930 | -22.31509 | 303° | 29km/h | 400m | -14.1m/s | 7.2°C | 78.8% | 0hPa | 0V | 08:12:00 | 00:00:00 | 00:00:00 | |
| DL9RDZ-1 | 2026-08-31 00:33:22 | 64.03856 | -22.31174 | 293° | 31km/h | 701m | -13.8m/s | 5.7°C | 55.2% | 0hPa | 0V | 08:13:00 | 00:00:00 | 00:00:00 | |
| DL9RDZ-1 | 2026-08-31 00:33:11 | 64.03826 | -22.31003 | 288° | 27km/h | 847m | -13.6m/s | 4.4°C | 59.2% | 0hPa | 0V | 08:13:00 | 00:00:00 | 00:00:00 | |
| DL9RDZ-1 | 2026-08-31 00:32:57 | 64.03796 | -22.30800 | 293° | 27km/h | 1031m | -14.0m/s | 2.8°C | 62.3% | 0hPa | 0V | 08:13:00 | 00:00:00 | 00:00:00 | |
| DL9RDZ-1 | 2026-08-31 00:32:47 | 64.03769 | -22.30655 | 302° | 29km/h | 1162m | -14.2m/s | 1.8°C | 62.1% | 0hPa | 0V | 08:13:00 | 00:00:00 | 00:00:00 | |
| DL9RDZ-1 | 2026-08-31 00:32:30 | 64.03714 | -22.30453 | 307° | 20km/h | 1393m | -14.2m/s | 0.5°C | 60.9% | 0hPa | 0V | 08:14:00 | 00:00:00 | 00:00:00 | |
| DL9RDZ-1 | 2026-08-31 00:32:19 | 64.03683 | -22.30337 | 302° | 20km/h | 1547m | -14.6m/s | -0.9°C | 63.9% | 0hPa | 0V | 08:14:00 | 00:00:00 | 00:00:00 | |
| DL9RDZ-1 | 2026-08-31 00:32:08 | 64.03652 | -22.30227 | 310° | 22km/h | 1700m | -14.8m/s | -1.9°C | 58.7% | 0hPa | 0V | 08:14:00 | 00:00:00 | 00:00:00 | |
| DL9RDZ-1 | 2026-08-31 00:31:57 | 64.03619 | -22.30117 | 310° | 24km/h | 1857m | -14.0m/s | -3.3°C | 71.3% | 0hPa | 0V | 08:14:00 | 00:00:00 | 00:00:00 | |
| DL9RDZ-1 | 2026-08-31 00:31:47 | 64.03584 | -22.30018 | 312° | 24km/h | 1998m | -14.8m/s | -4.3°C | 86.6% | 0hPa | 0V | 08:14:00 | 00:00:00 | 00:00:00 | |
| DL9RDZ-1 | 2026-08-31 00:31:37 | 64.03545 | -22.29920 | 320° | 24km/h | 2140m | -15.0m/s | -5.0°C | 84.1% | 0hPa | 0V | 08:15:00 | 00:00:00 | 00:00:00 | |
| DL9RDZ-1 | 2026-08-31 00:31:27 | 64.03491 | -22.29819 | 326° | 24km/h | 2297m | -14.6m/s | -5.7°C | 82.7% | 0hPa | 0V | 08:15:00 | 00:00:00 | 00:00:00 | |
| DL9RDZ-1 | 2026-08-31 00:31:07 | 64.03425 | -22.29674 | 304° | 15km/h | 2569m | -15.2m/s | -6.1°C | 56.1% | 0hPa | 0V | 08:15:00 | 00:00:00 | 00:00:00 | |
| DL9RDZ-1 | 2026-08-31 00:30:56 | 64.03403 | -22.29601 | 308° | 11km/h | 2727m | -14.5m/s | -7.5°C | 60.5% | 0hPa | 0V | 08:15:00 | 00:00:00 | 00:00:00 | |
| DL9RDZ-1 | 2026-08-31 00:30:45 | 64.03377 | -22.29530 | 307° | 16km/h | 2882m | -14.6m/s | -8.9°C | 65.4% | 0hPa | 0V | 08:16:00 | 00:00:00 | 00:00:00 | |
| DL9RDZ-1 | 2026-08-31 00:30:35 | 64.03347 | -22.29443 | 309° | 20km/h | 3039m | -15.4m/s | -10.0°C | 63.6% | 0hPa | 0V | 08:16:00 | 00:00:00 | 00:00:00 | |
| DL9RDZ-1 | 2026-08-31 00:30:24 | 64.03312 | -22.29345 | 311° | 20km/h | 3200m | -15.1m/s | -11.3°C | 67.5% | 0hPa | 0V | 08:16:00 | 00:00:00 | 00:00:00 | |
| DL9RDZ-1 | 2026-08-31 00:30:13 | 64.03275 | -22.29268 | 319° | 18km/h | 3346m | -15.8m/s | -12.6°C | 74.3% | 0hPa | 0V | 08:16:00 | 00:00:00 | 00:00:00 | |
| DL9RDZ-1 | 2026-08-31 00:30:03 | 64.03242 | -22.29180 | 300° | 20km/h | 3496m | -15.6m/s | -13.4°C | 63.0% | 0hPa | 0V | 08:16:00 | 00:00:00 | 00:00:00 | |
| DL9RDZ-1 | 2026-08-31 00:29:52 | 64.03222 | -22.29069 | 289° | 16km/h | 3671m | -16.9m/s | -14.8°C | 69.7% | 0hPa | 0V | 08:17:00 | 00:00:00 | 00:00:00 | |
| DL9RDZ-1 | 2026-08-31 00:29:42 | 64.03209 | -22.28970 | 288° | 18km/h | 3830m | -15.7m/s | -16.4°C | 77.0% | 0hPa | 0V | 08:17:00 | 00:00:00 | 00:00:00 | |
| DL9RDZ-1 | 2026-08-31 00:29:31 | 64.03187 | -22.28861 | 307° | 18km/h | 3997m | -16.0m/s | -17.5°C | 73.3% | 0hPa | 0V | 08:17:00 | 00:00:00 | 00:00:00 | |
| DL9RDZ-1 | 2026-08-31 00:29:20 | 64.03158 | -22.28781 | 311° | 16km/h | 4166m | -15.8m/s | -18.9°C | 83.9% | 0hPa | 0V | 08:17:00 | 00:00:00 | 00:00:00 | |
| DL9RDZ-1 | 2026-08-31 00:29:09 | 64.03132 | -22.28719 | 309° | 13km/h | 4335m | -16.3m/s | -19.8°C | 66.0% | 0hPa | 0V | 08:18:00 | 00:00:00 | 00:00:00 | |
| DL9RDZ-1 | 2026-08-31 00:28:58 | 64.03107 | -22.28648 | 322° | 15km/h | 4507m | -16.1m/s | -21.3°C | 70.2% | 0hPa | 0V | 08:18:00 | 00:00:00 | 00:00:00 | |
| DL9RDZ-1 | 2026-08-31 00:28:47 | 64.03082 | -22.28598 | 331° | 11km/h | 4678m | -16.2m/s | -22.7°C | 86.6% | 0hPa | 0V | 08:18:00 | 00:00:00 | 00:00:00 | |
| DL9RDZ-1 | 2026-08-31 00:28:36 | 64.03065 | -22.28586 | 360° | 7km/h | 4855m | -16.9m/s | -24.3°C | 93.1% | 0hPa | 0V | 08:18:00 | 00:00:00 | 00:00:00 | |
| DL9RDZ-1 | 2026-08-31 00:28:25 | 64.03053 | -22.28589 | 0° | 0km/h | 5030m | -16.7m/s | -25.0°C | 50.7% | 0hPa | 0V | 08:18:00 | 00:00:00 | 00:00:00 | |
| DL9RDZ-1 | 2026-08-31 00:28:14 | 64.03053 | -22.28595 | 0° | 0km/h | 5209m | -17.2m/s | -25.6°C | 42.9% | 0hPa | 0V | 08:18:00 | 00:00:00 | 00:00:00 | |
| DL9RDZ-1 | 2026-08-31 00:28:08 | 64.03052 | -22.28600 | 0° | 0km/h | 5374m | -17.1m/s | -27.0°C | 45.5% | 0hPa | 0V | 08:18:00 | 00:00:00 | 00:00:00 | |
| DL9RDZ-1 | 2026-08-31 00:27:51 | 64.03059 | -22.28632 | 54° | 7km/h | 5736m | -17.3m/s | -29.8°C | 54.8% | 0hPa | 0V | 08:18:00 | 00:00:00 | 00:00:00 | |
| DL9RDZ-1 | 2026-08-31 00:27:32 | 64.03045 | -22.28675 | 60° | 11km/h | 5904m | -17.1m/s | -31.2°C | 60.5% | 0hPa | 0V | 08:18:00 | 00:00:00 | 00:00:00 | |
| DL9RDZ-1 | 2026-08-31 00:27:21 | 64.03023 | -22.28759 | 57° | 20km/h | 6088m | -17.2m/s | -32.6°C | 66.8% | 0hPa | 0V | 08:19:00 | 00:00:00 | 00:00:00 | |
| DL9RDZ-1 | 2026-08-31 00:27:12 | 64.02993 | -22.28885 | 68° | 26km/h | 6258m | -17.3m/s | -33.7°C | 60.3% | 0hPa | 0V | 08:19:00 | 00:00:00 | 00:00:00 | |
| DL9RDZ-1 | 2026-08-31 00:27:01 | 64.02976 | -22.29023 | 80° | 22km/h | 6428m | -17.4m/s | -35.1°C | 60.4% | 0hPa | 0V | 08:19:00 | 00:00:00 | 00:00:00 | |
| DL9RDZ-1 | 2026-08-31 00:26:50 | 64.02966 | -22.29163 | 79° | 24km/h | 6618m | -18.3m/s | -36.5°C | 50.3% | 0hPa | 0V | 08:19:00 | 00:00:00 | 00:00:00 | |
| DL9RDZ-1 | 2026-08-31 00:26:40 | 64.02958 | -22.29281 | 79° | 20km/h | 6794m | -18.3m/s | -38.0°C | 50.8% | 0hPa | 0V | 08:19:00 | 00:00:00 | 00:00:00 | |
| DL9RDZ-1 | 2026-08-31 00:26:29 | 64.02946 | -22.29395 | 76° | 18km/h | 6986m | -18.3m/s | -39.6°C | 52.5% | 0hPa | 0V | 08:20:00 | 00:00:00 | 00:00:00 | |
| DL9RDZ-1 | 2026-08-31 00:26:19 | 64.02931 | -22.29484 | 61° | 16km/h | 7166m | -18.1m/s | -41.2°C | 61.1% | 0hPa | 0V | 08:20:00 | 00:00:00 | 00:00:00 | |
| DL9RDZ-1 | 2026-08-31 00:26:08 | 64.02909 | -22.29571 | 55° | 16km/h | 7362m | -18.8m/s | -43.0°C | 62.2% | 0hPa | 0V | 08:20:00 | 00:00:00 | 00:00:00 | |
| DL9RDZ-1 | 2026-08-31 00:25:57 | 64.02880 | -22.29658 | 53° | 18km/h | 7563m | -18.9m/s | -44.7°C | 63.1% | 0hPa | 0V | 08:20:00 | 00:00:00 | 00:00:00 | |
| DL9RDZ-1 | 2026-08-31 00:25:46 | 64.02845 | -22.29743 | 39° | 18km/h | 7766m | -18.5m/s | -46.4°C | 65.7% | 0hPa | 0V | 08:21:00 | 00:00:00 | 00:00:00 | |
| DL9RDZ-1 | 2026-08-31 00:25:35 | 64.02819 | -22.29825 | 67° | 13km/h | 7968m | -18.8m/s | -47.6°C | 59.2% | 0hPa | 0V | 08:21:00 | 00:00:00 | 00:00:00 | |
| DL9RDZ-1 | 2026-08-31 00:25:25 | 64.02805 | -22.29883 | 47° | 9km/h | 8155m | -18.2m/s | -48.6°C | 52.5% | 0hPa | 0V | 08:21:00 | 00:00:00 | 00:00:00 | |
| DL9RDZ-1 | 2026-08-31 00:25:14 | 64.02797 | -22.29914 | 36° | 2km/h | 8361m | -19.0m/s | -49.0°C | 42.4% | 0hPa | 0V | 08:21:00 | 00:00:00 | 00:00:00 | |
| DL9RDZ-1 | 2026-08-31 00:25:04 | 64.02802 | -22.29933 | 153° | 4km/h | 8553m | -19.5m/s | -50.0°C | 38.4% | 0hPa | 0V | 08:21:00 | 00:00:00 | 00:00:00 | |
| DL9RDZ-1 | 2026-08-31 00:24:54 | 64.02820 | -22.29942 | 171° | 11km/h | 8745m | -20.0m/s | -50.8°C | 30.7% | 0hPa | 0V | 00:00:00 | 00:00:00 | 00:00:00 | |
| DL9RDZ-1 | 2026-08-31 00:24:43 | 64.02842 | -22.29972 | 128° | 9km/h | 8960m | -19.9m/s | -50.7°C | 24.1% | 0hPa | 0V | 00:00:00 | 00:00:00 | 00:00:00 | |
| DL9RDZ-1 | 2026-08-31 00:24:21 | 64.02873 | -22.30082 | 123° | 15km/h | 9399m | -20.0m/s | -49.7°C | 10.2% | 0hPa | 0V | 00:00:00 | 00:00:00 | 00:00:00 | |
| DL9RDZ-1 | 2026-08-31 00:24:10 | 64.02883 | -22.30160 | 99° | 9km/h | 9621m | -20.4m/s | -48.3°C | 6.7% | 0hPa | 0V | 00:00:00 | 00:00:00 | 00:00:00 | |
| DL9RDZ-1 | 2026-08-31 00:23:49 | 64.02909 | -22.30362 | 107° | 18km/h | 10060m | -22.0m/s | -45.1°C | 2.4% | 0hPa | 0V | 08:23:00 | 00:00:00 | 00:00:00 | |
| DL9RDZ-1 | 2026-08-31 00:23:39 | 64.02921 | -22.30452 | 118° | 15km/h | 10278m | -22.6m/s | -44.4°C | 2.0% | 0hPa | 0V | 08:23:00 | 00:00:00 | 00:00:00 | |
| DL9RDZ-1 | 2026-08-31 00:23:29 | 64.02933 | -22.30547 | 95° | 24km/h | 10497m | -22.8m/s | -44.3°C | 2.0% | 0hPa | 0V | 08:23:00 | 00:00:00 | 00:00:00 | |
| DL9RDZ-1 | 2026-08-31 00:23:19 | 64.02943 | -22.30647 | 106° | 15km/h | 10721m | -23.6m/s | -43.9°C | 1.5% | 0hPa | 0V | 08:23:00 | 00:00:00 | 00:00:00 | |
| DL9RDZ-1 | 2026-08-31 00:23:08 | 64.02946 | -22.30764 | 87° | 18km/h | 10976m | -23.8m/s | -43.0°C | 1.2% | 0hPa | 0V | 08:23:00 | 00:00:00 | 00:00:00 | |
| DL9RDZ-1 | 2026-08-31 00:22:58 | 64.02938 | -22.30864 | 81° | 16km/h | 11206m | -23.6m/s | -42.7°C | 1.1% | 0hPa | 0V | 08:23:00 | 00:00:00 | 00:00:00 | |
| DL9RDZ-1 | 2026-08-31 00:22:37 | 64.02940 | -22.31106 | 95° | 13km/h | 11697m | -23.8m/s | -43.0°C | 1.1% | 0hPa | 0V | 08:23:00 | 00:00:00 | 00:00:00 | |
| DL9RDZ-1 | 2026-08-31 00:22:28 | 64.02930 | -22.31204 | 76° | 20km/h | 11937m | -25.5m/s | -42.9°C | 1.1% | 0hPa | 0V | 08:23:00 | 00:00:00 | 00:00:00 | |
| DL9RDZ-1 | 2026-08-31 00:22:16 | 64.02921 | -22.31333 | 81° | 22km/h | 12209m | -25.4m/s | -42.9°C | 1.0% | 0hPa | 0V | 08:24:00 | 00:00:00 | 00:00:00 | |
| DL9RDZ-1 | 2026-08-31 00:22:05 | 64.02908 | -22.31482 | 88° | 24km/h | 12489m | -25.6m/s | -43.5°C | 1.0% | 0hPa | 0V | 08:24:00 | 00:00:00 | 00:00:00 | |
| DL9RDZ-1 | 2026-08-31 00:21:55 | 64.02917 | -22.31611 | 100° | 22km/h | 12746m | -26.8m/s | -43.4°C | 1.0% | 0hPa | 0V | 08:24:00 | 00:00:00 | 00:00:00 | |
| DL9RDZ-1 | 2026-08-31 00:21:45 | 64.02917 | -22.31753 | 94° | 29km/h | 13009m | -27.1m/s | -43.6°C | 1.0% | 0hPa | 0V | 08:24:00 | 00:00:00 | 00:00:00 | |
| DL9RDZ-1 | 2026-08-31 00:21:26 | 64.02947 | -22.31982 | 95° | 16km/h | 13518m | -27.7m/s | -44.0°C | 1.0% | 0hPa | 0V | 08:25:00 | 00:00:00 | 00:00:00 | |
| DL9RDZ-1 | 2026-08-31 00:21:15 | 64.02957 | -22.32134 | 113° | 26km/h | 13828m | -29.2m/s | -43.8°C | 0.9% | 0hPa | 0V | 08:25:00 | 00:00:00 | 00:00:00 | |
| DL9RDZ-1 | 2026-08-31 00:21:05 | 64.02982 | -22.32228 | 128° | 11km/h | 14113m | -29.8m/s | -44.1°C | 0.9% | 0hPa | 0V | 08:25:00 | 00:00:00 | 00:00:00 | |
| DL9RDZ-1 | 2026-08-31 00:20:52 | 64.02970 | -22.32311 | 51° | 22km/h | 14494m | -29.7m/s | -44.1°C | 0.9% | 0hPa | 0V | 08:25:00 | 00:00:00 | 00:00:00 | |
| DL9RDZ-1 | 2026-08-31 00:20:42 | 64.02939 | -22.32440 | 72° | 27km/h | 14792m | -30.7m/s | -43.3°C | 0.8% | 0hPa | 0V | 08:25:00 | 00:00:00 | 00:00:00 | |
| DL9RDZ-1 | 2026-08-31 00:20:32 | 64.02921 | -22.32561 | 50° | 20km/h | 15121m | -31.7m/s | -44.0°C | 0.9% | 0hPa | 0V | 08:26:00 | 00:00:00 | 00:00:00 | |
| DL9RDZ-1 | 2026-08-31 00:20:20 | 64.02875 | -22.32696 | 68° | 31km/h | 15458m | -31.2m/s | -45.4°C | 1.0% | 0hPa | 0V | 08:26:00 | 00:00:00 | 00:00:00 | |
| DL9RDZ-1 | 2026-08-31 00:20:09 | 64.02876 | -22.32868 | 101° | 26km/h | 15797m | -31.8m/s | -45.5°C | 0.9% | 0hPa | 0V | 08:26:00 | 00:00:00 | 00:00:00 | |
| DL9RDZ-1 | 2026-08-31 00:19:52 | 64.02886 | -22.33112 | 102° | 18km/h | 16348m | -33.8m/s | -46.0°C | 0.9% | 0hPa | 0V | 08:26:00 | 00:00:00 | 00:00:00 | |
| DL9RDZ-1 | 2026-08-31 00:19:41 | 64.02884 | -22.33227 | 98° | 20km/h | 16710m | -34.2m/s | -46.2°C | 0.9% | 0hPa | 0V | 00:00:00 | 00:00:00 | 00:00:00 | |
| DL9RDZ-1 | 2026-08-31 00:19:30 | 64.02886 | -22.33340 | 70° | 18km/h | 17091m | -35.0m/s | -46.3°C | 0.9% | 0hPa | 0V | 00:00:00 | 00:00:00 | 00:00:00 | |
| DL9RDZ-1 | 2026-08-31 00:19:10 | 64.02846 | -22.33569 | 60° | 22km/h | 17791m | -36.1m/s | -46.4°C | 0.9% | 0hPa | 0V | 00:00:00 | 00:00:00 | 00:00:00 | |
| DL9RDZ-1 | 2026-08-31 00:18:54 | 64.02794 | -22.33723 | 53° | 27km/h | 18383m | -38.7m/s | -46.3°C | 0.9% | 0hPa | 0V | 08:28:00 | 00:00:00 | 00:00:00 | |
| DL9RDZ-1 | 2026-08-31 00:18:43 | 64.02781 | -22.33881 | 99° | 22km/h | 18813m | -39.3m/s | -46.4°C | 0.9% | 0hPa | 0V | 08:28:00 | 00:00:00 | 00:00:00 | |
| DL9RDZ-1 | 2026-08-31 00:18:33 | 64.02777 | -22.33966 | 64° | 15km/h | 19205m | -40.6m/s | -46.6°C | 0.9% | 0hPa | 0V | 08:28:00 | 00:00:00 | 00:00:00 | |
| DL9RDZ-1 | 2026-08-31 00:18:22 | 64.02756 | -22.34053 | 66° | 18km/h | 19645m | -40.2m/s | -46.3°C | 0.9% | 0hPa | 0V | 08:28:00 | 00:00:00 | 00:00:00 | |
| DL9RDZ-1 | 2026-08-31 00:18:11 | 64.02740 | -22.34157 | 57° | 18km/h | 20098m | -44.1m/s | -45.9°C | 0.8% | 0hPa | 0V | 08:28:00 | 00:00:00 | 00:00:00 | |
| DL9RDZ-1 | 2026-08-31 00:18:00 | 64.02686 | -22.34271 | 53° | 35km/h | 20581m | -44.9m/s | -47.3°C | 0.9% | 0hPa | 0V | 08:29:00 | 00:00:00 | 00:00:00 | |
| DL9RDZ-1 | 2026-08-31 00:17:20 | 64.02538 | -22.34730 | 77° | 37km/h | 22403m | -50.6m/s | -46.7°C | 0.8% | 0hPa | 0V | 08:29:00 | 00:00:00 | 00:00:00 | |
| DL9RDZ-1 | 2026-08-31 00:17:09 | 64.02526 | -22.34917 | 79° | 20km/h | 22938m | -50.7m/s | -46.6°C | 0.8% | 0hPa | 0V | 00:00:00 | 00:00:00 | 00:00:00 | |
| DL9RDZ-1 | 2026-08-31 00:16:58 | 64.02498 | -22.35030 | 63° | 24km/h | 23493m | -50.3m/s | -47.1°C | 0.8% | 0hPa | 0V | 00:00:00 | 00:00:00 | 00:00:00 | |
| DL9RDZ-1 | 2026-08-31 00:16:27 | 64.02460 | -22.35281 | 68° | 11km/h | 25185m | -60.9m/s | -47.2°C | 0.8% | 0hPa | 0V | 00:00:00 | 00:00:00 | 00:00:00 | |
| DL9RDZ-1 | 2026-08-31 00:15:42 | 64.02464 | -22.35171 | 248° | 16km/h | 26874m | 7.9m/s | -47.6°C | 0.8% | 0hPa | 0V | 00:00:00 | 00:00:00 | 00:00:00 | |
| DL9RDZ-1 | 2026-08-31 00:15:31 | 64.02486 | -22.35103 | 256° | 20km/h | 26798m | 6.0m/s | -47.8°C | 0.8% | 0hPa | 0V | 00:00:00 | 00:00:00 | 00:00:00 | |
| DL9RDZ-1 | 2026-08-31 00:15:20 | 64.02538 | -22.35042 | 191° | 24km/h | 26723m | 8.0m/s | -47.9°C | 0.8% | 0hPa | 0V | 00:00:00 | 00:00:00 | 00:00:00 | |
| DL9RDZ-1 | 2026-08-31 00:15:10 | 64.02580 | -22.35045 | 171° | 15km/h | 26652m | 6.5m/s | -47.6°C | 0.8% | 0hPa | 0V | 00:00:00 | 00:00:00 | 00:00:00 | |
| DL9RDZ-1 | 2026-08-31 00:14:59 | 64.02622 | -22.35055 | 150° | 24km/h | 26576m | 7.6m/s | -47.4°C | 0.8% | 0hPa | 0V | 00:00:00 | 00:00:00 | 00:00:00 | |
| DL9RDZ-1 | 2026-08-31 00:14:47 | 64.02650 | -22.35104 | 145° | 22km/h | 26491m | 6.6m/s | -46.9°C | 0.8% | 0hPa | 0V | 00:00:00 | 00:00:00 | 00:00:00 | |
| DL9RDZ-1 | 2026-08-31 00:14:34 | 64.02649 | -22.35126 | 125° | 13km/h | 26400m | 7.0m/s | -46.8°C | 0.8% | 0hPa | 0V | 00:00:00 | 00:00:00 | 00:00:00 | |
| DL9RDZ-1 | 2026-08-31 00:14:22 | 64.02626 | -22.35178 | 21° | 9km/h | 26314m | 6.7m/s | -47.2°C | 0.8% | 0hPa | 0V | 00:00:00 | 00:00:00 | 00:00:00 | |
| DL9RDZ-1 | 2026-08-31 00:14:11 | 64.02567 | -22.35195 | 348° | 26km/h | 26239m | 8.6m/s | -47.1°C | 0.8% | 0hPa | 0V | 00:00:00 | 00:00:00 | 00:00:00 | |
| DL9RDZ-1 | 2026-08-31 00:13:58 | 64.02477 | -22.35156 | 327° | 38km/h | 26146m | 5.9m/s | -46.9°C | 0.8% | 0hPa | 0V | 00:00:00 | 00:00:00 | 00:00:00 | |
| DL9RDZ-1 | 2026-08-31 00:13:46 | 64.02413 | -22.35078 | 315° | 37km/h | 26065m | 6.1m/s | -46.9°C | 0.8% | 0hPa | 0V | 00:00:00 | 00:00:00 | 00:00:00 | |
| DL9RDZ-1 | 2026-08-31 00:13:28 | 64.02346 | -22.34949 | 298° | 7km/h | 25948m | 7.3m/s | -47.1°C | 0.8% | 0hPa | 0V | 00:00:00 | 00:00:00 | 00:00:00 | |
| DL9RDZ-1 | 2026-08-31 00:13:12 | 64.02333 | -22.34897 | 219° | 5km/h | 25845m | 8.2m/s | -47.3°C | 0.8% | 0hPa | 0V | 00:00:00 | 00:00:00 | 00:00:00 | |
| DL9RDZ-1 | 2026-08-31 00:11:43 | 64.02325 | -22.35481 | 19° | 18km/h | 25292m | 5.4m/s | -48.6°C | 0.9% | 0hPa | 0V | 00:00:00 | 00:00:00 | 00:00:00 | |
| DL9RDZ-1 | 2026-08-31 00:11:25 | 64.02251 | -22.35612 | 42° | 24km/h | 25169m | 5.5m/s | -48.8°C | 0.9% | 0hPa | 0V | 00:00:00 | 00:00:00 | 00:00:00 | |
| DL9RDZ-1 | 2026-08-31 00:11:15 | 64.02205 | -22.35650 | 30° | 13km/h | 25095m | 4.0m/s | -49.1°C | 0.9% | 0hPa | 0V | 00:00:00 | 00:00:00 | 00:00:00 | |
| DL9RDZ-1 | 2026-08-31 00:11:03 | 64.02164 | -22.35651 | 300° | 9km/h | 25024m | 6.1m/s | -49.1°C | 0.9% | 0hPa | 0V | 00:00:00 | 00:00:00 | 00:00:00 | |
| DL9RDZ-1 | 2026-08-31 00:10:52 | 64.02151 | -22.35661 | 15° | 4km/h | 24954m | 5.4m/s | -48.6°C | 0.9% | 0hPa | 0V | 00:00:00 | 00:00:00 | 00:00:00 | |
| DL9RDZ-1 | 2026-08-31 00:08:50 | 64.01973 | -22.36565 | 0° | 0km/h | 24165m | 8.1m/s | -47.3°C | 0.8% | 0hPa | 0V | 00:00:00 | 00:00:00 | 00:00:00 | |
| DL9RDZ-1 | 2026-08-31 00:08:39 | 64.01962 | -22.36619 | 25° | 4km/h | 24097m | 7.0m/s | -47.5°C | 0.9% | 0hPa | 0V | 00:00:00 | 00:00:00 | 00:00:00 | |
| DL9RDZ-1 | 2026-08-31 00:08:29 | 64.01946 | -22.36632 | 46° | 15km/h | 24036m | 6.1m/s | -47.8°C | 0.9% | 0hPa | 0V | 00:00:00 | 00:00:00 | 00:00:00 | |
| DL9RDZ-1 | 2026-08-31 00:08:17 | 64.01947 | -22.36662 | 122° | 9km/h | 23960m | 6.1m/s | -48.2°C | 0.9% | 0hPa | 0V | 00:00:00 | 00:00:00 | 00:00:00 | |
| DL9RDZ-1 | 2026-08-31 00:08:07 | 64.01947 | -22.36750 | 113° | 18km/h | 23900m | 4.2m/s | -48.7°C | 0.9% | 0hPa | 0V | 00:00:00 | 00:00:00 | 00:00:00 | |
| DL9RDZ-1 | 2026-08-31 00:07:57 | 64.01964 | -22.36884 | 87° | 29km/h | 23837m | 5.0m/s | -48.8°C | 1.0% | 0hPa | 0V | 00:00:00 | 00:00:00 | 00:00:00 | |
| DL9RDZ-1 | 2026-08-31 00:07:46 | 64.01975 | -22.37092 | 86° | 29km/h | 23771m | 7.1m/s | -48.7°C | 0.9% | 0hPa | 0V | 00:00:00 | 00:00:00 | 00:00:00 | |
| DL9RDZ-1 | 2026-08-31 00:07:35 | 64.01974 | -22.37297 | 86° | 31km/h | 23702m | 8.9m/s | -48.7°C | 1.0% | 0hPa | 0V | 00:00:00 | 00:00:00 | 00:00:00 | |
| DL9RDZ-1 | 2026-08-31 00:07:25 | 64.01946 | -22.37469 | 69° | 33km/h | 23637m | 6.3m/s | -48.3°C | 0.9% | 0hPa | 0V | 00:00:00 | 00:00:00 | 00:00:00 | |
| DL9RDZ-1 | 2026-08-31 00:07:14 | 64.01913 | -22.37638 | 57° | 33km/h | 23568m | 6.2m/s | -48.1°C | 0.9% | 0hPa | 0V | 00:00:00 | 00:00:00 | 00:00:00 | |
| DL9RDZ-1 | 2026-08-31 00:05:31 | 64.01751 | -22.38893 | 105° | 37km/h | 22910m | 7.0m/s | -48.0°C | 0.9% | 0hPa | 0V | 00:00:00 | 00:00:00 | 00:00:00 | |
| DL9RDZ-1 | 2026-08-31 00:05:20 | 64.01758 | -22.39070 | 90° | 33km/h | 22841m | 6.3m/s | -48.2°C | 0.9% | 0hPa | 0V | 00:00:00 | 00:00:00 | 00:00:00 | |
| DL9RDZ-1 | 2026-08-31 00:05:07 | 64.01752 | -22.39374 | 77° | 38km/h | 22752m | 6.2m/s | -48.3°C | 0.9% | 0hPa | 0V | 00:00:00 | 00:00:00 | 00:00:00 | |
| DL9RDZ-1 | 2026-08-31 00:04:57 | 64.01732 | -22.39608 | 89° | 42km/h | 22690m | 5.5m/s | -48.2°C | 0.9% | 0hPa | 0V | 00:00:00 | 00:00:00 | 00:00:00 | |
| DL9RDZ-1 | 2026-08-31 00:04:47 | 64.01707 | -22.39859 | 77° | 40km/h | 22626m | 6.4m/s | -48.1°C | 1.0% | 0hPa | 0V | 00:00:00 | 00:00:00 | 00:00:00 | |
| DL9RDZ-1 | 2026-08-31 00:04:37 | 64.01692 | -22.40155 | 75° | 42km/h | 22556m | 5.8m/s | -48.0°C | 0.9% | 0hPa | 0V | 00:00:00 | 00:00:00 | 00:00:00 | |
| DL9RDZ-1 | 2026-08-31 00:04:26 | 64.01645 | -22.40369 | 79° | 44km/h | 22487m | 6.1m/s | -47.9°C | 0.9% | 0hPa | 0V | 00:00:00 | 00:00:00 | 00:00:00 | |
| DL9RDZ-1 | 2026-08-31 00:04:15 | 64.01608 | -22.40611 | 69° | 33km/h | 22419m | 6.9m/s | -47.6°C | 0.9% | 0hPa | 0V | 00:00:00 | 00:00:00 | 00:00:00 | |
| DL9RDZ-1 | 2026-08-31 00:04:05 | 64.01569 | -22.40797 | 45° | 33km/h | 22356m | 4.9m/s | -47.4°C | 0.9% | 0hPa | 0V | 00:00:00 | 00:00:00 | 00:00:00 | |
| DL9RDZ-1 | 2026-08-31 00:03:53 | 64.01522 | -22.40942 | 48° | 35km/h | 22285m | 5.3m/s | -47.1°C | 0.9% | 0hPa | 0V | 00:00:00 | 00:00:00 | 00:00:00 | |
| DL9RDZ-1 | 2026-08-31 00:03:43 | 64.01465 | -22.41037 | 42° | 26km/h | 22221m | 7.5m/s | -46.9°C | 0.9% | 0hPa | 0V | 00:00:00 | 00:00:00 | 00:00:00 | |
| DL9RDZ-1 | 2026-08-31 00:03:34 | 64.01415 | -22.41124 | 28° | 20km/h | 22155m | 7.3m/s | -46.7°C | 0.9% | 0hPa | 0V | 00:00:00 | 00:00:00 | 00:00:00 | |
| DL9RDZ-1 | 2026-08-31 00:03:22 | 64.01353 | -22.41186 | 29° | 24km/h | 22086m | 5.7m/s | -46.8°C | 0.9% | 0hPa | 0V | 00:00:00 | 00:00:00 | 00:00:00 | |
| DL9RDZ-1 | 2026-08-31 00:03:15 | 64.01309 | -22.41231 | 58° | 24km/h | 22022m | 7.5m/s | -47.3°C | 0.9% | 0hPa | 0V | 00:00:00 | 00:00:00 | 00:00:00 | |
| DL9RDZ-1 | 2026-08-31 00:00:59 | 64.00737 | -22.42344 | 66° | 11km/h | 21135m | 7.8m/s | -47.3°C | 1.0% | 0hPa | 0V | 00:00:00 | 00:00:00 | 00:00:00 | |
| DL9RDZ-1 | 2026-08-31 00:00:45 | 64.00742 | -22.42429 | 77° | 20km/h | 21067m | 4.2m/s | -47.1°C | 0.9% | 0hPa | 0V | 00:00:00 | 00:00:00 | 00:00:00 | |
| DL9RDZ-1 | 2026-08-31 00:00:35 | 64.00738 | -22.42546 | 91° | 24km/h | 20998m | 5.8m/s | -47.7°C | 1.0% | 0hPa | 0V | 00:00:00 | 00:00:00 | 00:00:00 | |
| DL9RDZ-1 | 2026-08-31 00:00:27 | 64.00716 | -22.42681 | 80° | 20km/h | 20934m | 6.4m/s | -47.7°C | 0.9% | 0hPa | 0V | 00:00:00 | 00:00:00 | 00:00:00 | |
| DL9RDZ-1 | 2026-08-31 00:00:14 | 64.00699 | -22.42817 | 58° | 26km/h | 20865m | 4.7m/s | -47.7°C | 1.0% | 0hPa | 0V | 00:00:00 | 00:00:00 | 00:00:00 | |
| DL9RDZ-1 | 2026-08-31 00:00:02 | 64.00654 | -22.42951 | 42° | 31km/h | 20799m | 5.6m/s | -47.9°C | 1.0% | 0hPa | 0V | 00:00:00 | 00:00:00 | 00:00:00 | |
| DL9RDZ-1 | 2026-08-30 23:59:50 | 64.00607 | -22.43091 | 44° | 31km/h | 20731m | 4.7m/s | -48.2°C | 1.0% | 0hPa | 0V | 00:00:00 | 00:00:00 | 00:00:00 | |
| DL9RDZ-1 | 2026-08-30 23:59:21 | 64.00400 | -22.43524 | 29° | 38km/h | 20552m | 3.6m/s | -47.5°C | 1.0% | 0hPa | 0V | 00:00:00 | 00:00:00 | 00:00:00 | |
| DL9RDZ-1 | 2026-08-30 23:58:58 | 64.00242 | -22.43724 | 21° | 26km/h | 20403m | 6.9m/s | -47.0°C | 1.0% | 0hPa | 0V | 00:00:00 | 00:00:00 | 00:00:00 | |
| DL9RDZ-1 | 2026-08-30 23:57:23 | 64.00105 | -22.44644 | 81° | 24km/h | 19810m | 5.3m/s | -47.1°C | 1.0% | 0hPa | 0V | 00:00:00 | 00:00:00 | 00:00:00 | |
| DL9RDZ-1 | 2026-08-30 23:57:13 | 64.00089 | -22.44773 | 65° | 18km/h | 19739m | 7.3m/s | -47.2°C | 1.0% | 0hPa | 0V | 00:00:00 | 00:00:00 | 00:00:00 | |
| DL9RDZ-1 | 2026-08-30 23:57:00 | 64.00063 | -22.44880 | 62° | 18km/h | 19662m | 5.8m/s | -47.8°C | 1.0% | 0hPa | 0V | 00:00:00 | 00:00:00 | 00:00:00 | |
| DL9RDZ-1 | 2026-08-30 23:56:50 | 64.00050 | -22.44985 | 63° | 11km/h | 19594m | 4.7m/s | -48.0°C | 1.0% | 0hPa | 0V | 00:00:00 | 00:00:00 | 00:00:00 | |
| DL9RDZ-1 | 2026-08-30 23:56:33 | 64.00034 | -22.45136 | 66° | 5km/h | 19497m | 5.8m/s | -47.9°C | 1.0% | 0hPa | 0V | 00:00:00 | 00:00:00 | 00:00:00 | |
| DL9RDZ-1 | 2026-08-30 23:56:15 | 64.00014 | -22.45237 | 80° | 15km/h | 19383m | 4.9m/s | -47.4°C | 1.0% | 0hPa | 0V | 00:00:00 | 00:00:00 | 00:00:00 | |
| DL9RDZ-1 | 2026-08-30 23:56:05 | 63.99998 | -22.45334 | 78° | 11km/h | 19322m | 4.3m/s | -47.6°C | 1.1% | 0hPa | 0V | 00:00:00 | 00:00:00 | 00:00:00 | |
| DL9RDZ-1 | 2026-08-30 23:55:54 | 63.99992 | -22.45440 | 72° | 18km/h | 19256m | 7.4m/s | -47.4°C | 1.0% | 0hPa | 0V | 00:00:00 | 00:00:00 | 00:00:00 | |
| DL9RDZ-1 | 2026-08-30 23:55:44 | 63.99984 | -22.45517 | 82° | 11km/h | 19184m | 7.0m/s | -47.0°C | 1.0% | 0hPa | 0V | 00:00:00 | 00:00:00 | 00:00:00 | |
| DL9RDZ-1 | 2026-08-30 23:55:34 | 63.99971 | -22.45564 | 91° | 9km/h | 19122m | 6.2m/s | -46.7°C | 1.0% | 0hPa | 0V | 00:00:00 | 00:00:00 | 00:00:00 | |
| DL9RDZ-1 | 2026-08-30 23:55:22 | 63.99959 | -22.45634 | 83° | 7km/h | 19057m | 5.6m/s | -46.7°C | 1.0% | 0hPa | 0V | 00:00:00 | 00:00:00 | 00:00:00 | |
| DL9RDZ-1 | 2026-08-30 23:55:12 | 63.99956 | -22.45717 | 93° | 18km/h | 18994m | 6.0m/s | -46.7°C | 1.0% | 0hPa | 0V | 00:00:00 | 00:00:00 | 00:00:00 | |
| DL9RDZ-1 | 2026-08-30 23:55:03 | 63.99967 | -22.45814 | 103° | 20km/h | 18931m | 5.3m/s | -46.7°C | 1.0% | 0hPa | 0V | 00:00:00 | 00:00:00 | 00:00:00 | |
| DL9RDZ-1 | 2026-08-30 23:54:31 | 63.99962 | -22.46239 | 70° | 31km/h | 18741m | 6.3m/s | -47.1°C | 1.0% | 0hPa | 0V | 00:00:00 | 00:00:00 | 00:00:00 | |
| DL9RDZ-1 | 2026-08-30 23:54:21 | 63.99937 | -22.46371 | 50° | 20km/h | 18682m | 4.8m/s | -47.0°C | 1.0% | 0hPa | 0V | 00:00:00 | 00:00:00 | 00:00:00 | |
| DL9RDZ-1 | 2026-08-30 23:54:10 | 63.99899 | -22.46527 | 80° | 29km/h | 18617m | 4.4m/s | -47.2°C | 1.0% | 0hPa | 0V | 00:00:00 | 00:00:00 | 00:00:00 | |
| DL9RDZ-1 | 2026-08-30 23:54:00 | 63.99866 | -22.46669 | 62° | 33km/h | 18561m | 4.4m/s | -47.1°C | 1.0% | 0hPa | 0V | 00:00:00 | 00:00:00 | 00:00:00 | |
| DL9RDZ-1 | 2026-08-30 23:53:49 | 63.99817 | -22.46830 | 61° | 24km/h | 18500m | 6.5m/s | -47.1°C | 1.0% | 0hPa | 0V | 00:00:00 | 00:00:00 | 00:00:00 | |
| DL9RDZ-1 | 2026-08-30 23:53:38 | 63.99762 | -22.46936 | 40° | 22km/h | 18435m | 7.3m/s | -46.8°C | 1.0% | 0hPa | 0V | 00:00:00 | 00:00:00 | 00:00:00 | |
| DL9RDZ-1 | 2026-08-30 23:53:28 | 63.99714 | -22.47013 | 25° | 20km/h | 18379m | 7.1m/s | -46.7°C | 1.0% | 0hPa | 0V | 00:00:00 | 00:00:00 | 00:00:00 | |
| DL9RDZ-1 | 2026-08-30 23:53:17 | 63.99659 | -22.47029 | 4° | 18km/h | 18312m | 4.9m/s | -46.7°C | 1.0% | 0hPa | 0V | 00:00:00 | 00:00:00 | 00:00:00 | |
| DL9RDZ-1 | 2026-08-30 23:51:29 | 63.99385 | -22.48032 | 71° | 22km/h | 17706m | 5.5m/s | -47.2°C | 1.0% | 0hPa | 0V | 00:00:00 | 00:00:00 | 00:00:00 | |
| DL9RDZ-1 | 2026-08-30 23:51:19 | 63.99355 | -22.48132 | 61° | 20km/h | 17649m | 4.3m/s | -47.3°C | 1.1% | 0hPa | 0V | 00:00:00 | 00:00:00 | 00:00:00 | |
| DL9RDZ-1 | 2026-08-30 23:50:43 | 63.99284 | -22.48664 | 59° | 29km/h | 17442m | 7.0m/s | -47.7°C | 1.1% | 0hPa | 0V | 00:00:00 | 00:00:00 | 00:00:00 | |
| DL9RDZ-1 | 2026-08-30 23:50:33 | 63.99243 | -22.48789 | 57° | 24km/h | 17382m | 5.9m/s | -47.5°C | 1.1% | 0hPa | 0V | 00:00:00 | 00:00:00 | 00:00:00 | |
| DL9RDZ-1 | 2026-08-30 23:50:22 | 63.99194 | -22.48910 | 45° | 29km/h | 17317m | 4.0m/s | -47.6°C | 1.1% | 0hPa | 0V | 00:00:00 | 00:00:00 | 00:00:00 | |
| DL9RDZ-1 | 2026-08-30 23:50:11 | 63.99162 | -22.48993 | 60° | 15km/h | 17252m | 5.0m/s | -47.2°C | 1.1% | 0hPa | 0V | 00:00:00 | 00:00:00 | 00:00:00 | |
| DL9RDZ-1 | 2026-08-30 23:50:01 | 63.99145 | -22.49064 | 69° | 18km/h | 17193m | 4.9m/s | -46.8°C | 1.1% | 0hPa | 0V | 00:00:00 | 00:00:00 | 00:00:00 | |
| DL9RDZ-1 | 2026-08-30 23:49:51 | 63.99135 | -22.49118 | 73° | 4km/h | 17135m | 4.7m/s | -46.7°C | 1.1% | 0hPa | 0V | 00:00:00 | 00:00:00 | 00:00:00 | |
| DL9RDZ-1 | 2026-08-30 23:49:41 | 63.99132 | -22.49184 | 89° | 7km/h | 17077m | 6.7m/s | -46.5°C | 1.0% | 0hPa | 0V | 00:00:00 | 00:00:00 | 00:00:00 | |
| DL9RDZ-1 | 2026-08-30 23:49:31 | 63.99143 | -22.49233 | 104° | 18km/h | 17012m | 4.4m/s | -46.1°C | 1.1% | 0hPa | 0V | 00:00:00 | 00:00:00 | 00:00:00 | |
| DL9RDZ-1 | 2026-08-30 23:49:20 | 63.99163 | -22.49321 | 130° | 13km/h | 16949m | 4.8m/s | -45.8°C | 1.0% | 0hPa | 0V | 00:00:00 | 00:00:00 | 00:00:00 | |
| DL9RDZ-1 | 2026-08-30 23:49:08 | 63.99186 | -22.49415 | 129° | 18km/h | 16886m | 6.8m/s | -45.8°C | 1.0% | 0hPa | 0V | 00:00:00 | 00:00:00 | 00:00:00 | |
| DL9RDZ-1 | 2026-08-30 23:48:58 | 63.99212 | -22.49540 | 105° | 27km/h | 16821m | 5.5m/s | -45.6°C | 1.0% | 0hPa | 0V | 00:00:00 | 00:00:00 | 00:00:00 | |
| DL9RDZ-1 | 2026-08-30 23:47:39 | 63.99208 | -22.50462 | 82° | 20km/h | 16379m | 5.3m/s | -45.9°C | 1.1% | 0hPa | 0V | 00:00:00 | 00:00:00 | 00:00:00 | |
| DL9RDZ-1 | 2026-08-30 23:47:28 | 63.99216 | -22.50589 | 95° | 18km/h | 16316m | 4.7m/s | -45.6°C | 1.0% | 0hPa | 0V | 00:00:00 | 00:00:00 | 00:00:00 | |
| DL9RDZ-1 | 2026-08-30 23:46:57 | 63.99251 | -22.51034 | 88° | 27km/h | 16143m | 7.1m/s | -45.9°C | 1.1% | 0hPa | 0V | 00:00:00 | 00:00:00 | 00:00:00 | |
| DL9RDZ-1 | 2026-08-30 23:46:47 | 63.99258 | -22.51216 | 101° | 29km/h | 16086m | 5.4m/s | -45.7°C | 1.0% | 0hPa | 0V | 00:00:00 | 00:00:00 | 00:00:00 | |
| DL9RDZ-1 | 2026-08-30 23:46:37 | 63.99256 | -22.51405 | 96° | 24km/h | 16027m | 6.8m/s | -45.8°C | 1.1% | 0hPa | 0V | 00:00:00 | 00:00:00 | 00:00:00 | |
| DL9RDZ-1 | 2026-08-30 23:46:25 | 63.99255 | -22.51556 | 79° | 24km/h | 15964m | 5.4m/s | -45.8°C | 1.1% | 0hPa | 0V | 00:00:00 | 00:00:00 | 00:00:00 | |
| DL9RDZ-1 | 2026-08-30 23:46:14 | 63.99243 | -22.51729 | 84° | 31km/h | 15902m | 6.8m/s | -45.5°C | 1.1% | 0hPa | 0V | 00:00:00 | 00:00:00 | 00:00:00 | |
| DL9RDZ-1 | 2026-08-30 23:46:03 | 63.99245 | -22.51937 | 93° | 35km/h | 15839m | 6.1m/s | -45.1°C | 1.0% | 0hPa | 0V | 00:00:00 | 00:00:00 | 00:00:00 | |
| DL9RDZ-1 | 2026-08-30 23:45:52 | 63.99255 | -22.52148 | 104° | 31km/h | 15778m | 5.6m/s | -45.1°C | 1.0% | 0hPa | 0V | 00:00:00 | 00:00:00 | 00:00:00 | |
| DL9RDZ-1 | 2026-08-30 23:45:42 | 63.99276 | -22.52325 | 111° | 31km/h | 15720m | 5.1m/s | -45.0°C | 1.1% | 0hPa | 0V | 00:00:00 | 00:00:00 | 00:00:00 | |
| DL9RDZ-1 | 2026-08-30 23:45:31 | 63.99292 | -22.52515 | 94° | 31km/h | 15658m | 4.7m/s | -44.9°C | 1.0% | 0hPa | 0V | 00:00:00 | 00:00:00 | 00:00:00 | |
| DL9RDZ-1 | 2026-08-30 23:45:21 | 63.99301 | -22.52706 | 82° | 33km/h | 15606m | 3.8m/s | -45.0°C | 1.0% | 0hPa | 0V | 00:00:00 | 00:00:00 | 00:00:00 | |
| DL9RDZ-1 | 2026-08-30 23:45:10 | 63.99291 | -22.52912 | 78° | 37km/h | 15548m | 7.1m/s | -45.1°C | 1.1% | 0hPa | 0V | 00:00:00 | 00:00:00 | 00:00:00 | |
| DL9RDZ-1 | 2026-08-30 23:44:59 | 63.99262 | -22.53136 | 68° | 38km/h | 15485m | 5.2m/s | -45.2°C | 1.1% | 0hPa | 0V | 00:00:00 | 00:00:00 | 00:00:00 | |
| DL9RDZ-1 | 2026-08-30 23:44:48 | 63.99223 | -22.53322 | 63° | 35km/h | 15423m | 5.7m/s | -45.0°C | 1.1% | 0hPa | 0V | 00:00:00 | 00:00:00 | 00:00:00 | |
| DL9RDZ-1 | 2026-08-30 23:44:37 | 63.99166 | -22.53501 | 40° | 33km/h | 15363m | 6.0m/s | -44.8°C | 1.1% | 0hPa | 0V | 00:00:00 | 00:00:00 | 00:00:00 | |
| DL9RDZ-1 | 2026-08-30 23:44:26 | 63.99098 | -22.53630 | 45° | 27km/h | 15304m | 5.5m/s | -44.6°C | 1.1% | 0hPa | 0V | 00:00:00 | 00:00:00 | 00:00:00 | |
| DL9RDZ-1 | 2026-08-30 23:44:15 | 63.99044 | -22.53756 | 49° | 29km/h | 15243m | 6.6m/s | -44.6°C | 1.1% | 0hPa | 0V | 00:00:00 | 00:00:00 | 00:00:00 | |
| DL9RDZ-1 | 2026-08-30 23:44:05 | 63.99004 | -22.53844 | 54° | 22km/h | 15187m | 6.6m/s | -44.4°C | 1.0% | 0hPa | 0V | 00:00:00 | 00:00:00 | 00:00:00 | |
| DL9RDZ-1 | 2026-08-30 23:43:55 | 63.98977 | -22.53943 | 60° | 11km/h | 15130m | 6.8m/s | -44.2°C | 1.0% | 0hPa | 0V | 00:00:00 | 00:00:00 | 00:00:00 | |
| DL9RDZ-1 | 2026-08-30 23:43:45 | 63.98957 | -22.54032 | 80° | 22km/h | 15076m | 4.9m/s | -44.0°C | 1.0% | 0hPa | 0V | 00:00:00 | 00:00:00 | 00:00:00 | |
| DL9RDZ-1 | 2026-08-30 23:43:34 | 63.98959 | -22.54151 | 111° | 18km/h | 15013m | 4.5m/s | -44.2°C | 1.1% | 0hPa | 0V | 00:00:00 | 00:00:00 | 00:00:00 | |
| DL9RDZ-1 | 2026-08-30 23:43:24 | 63.98964 | -22.54280 | 87° | 20km/h | 14961m | 6.1m/s | -44.0°C | 1.1% | 0hPa | 0V | 00:00:00 | 00:00:00 | 00:00:00 | |
| DL9RDZ-1 | 2026-08-30 23:43:13 | 63.98962 | -22.54425 | 94° | 26km/h | 14900m | 5.8m/s | -43.8°C | 1.0% | 0hPa | 0V | 00:00:00 | 00:00:00 | 00:00:00 | |
| DL9RDZ-1 | 2026-08-30 23:43:02 | 63.98956 | -22.54578 | 84° | 26km/h | 14841m | 5.2m/s | -43.9°C | 1.0% | 0hPa | 0V | 00:00:00 | 00:00:00 | 00:00:00 | |
| DL9RDZ-1 | 2026-08-30 23:42:51 | 63.98929 | -22.54752 | 79° | 29km/h | 14785m | 4.7m/s | -44.1°C | 1.0% | 0hPa | 0V | 00:00:00 | 00:00:00 | 00:00:00 | |
| DL9RDZ-1 | 2026-08-30 23:42:41 | 63.98911 | -22.54912 | 76° | 24km/h | 14736m | 4.0m/s | -44.4°C | 1.1% | 0hPa | 0V | 00:00:00 | 00:00:00 | 00:00:00 | |
| DL9RDZ-1 | 2026-08-30 23:42:31 | 63.98887 | -22.55025 | 71° | 24km/h | 14683m | 5.6m/s | -44.8°C | 1.1% | 0hPa | 0V | 00:00:00 | 00:00:00 | 00:00:00 | |
| DL9RDZ-1 | 2026-08-30 23:42:21 | 63.98869 | -22.55130 | 72° | 18km/h | 14625m | 5.3m/s | -45.0°C | 1.1% | 0hPa | 0V | 00:00:00 | 00:00:00 | 00:00:00 | |
| DL9RDZ-1 | 2026-08-30 23:41:39 | 63.98831 | -22.55453 | 130° | 9km/h | 14409m | 4.4m/s | -44.6°C | 1.1% | 0hPa | 0V | 00:00:00 | 00:00:00 | 00:00:00 | |
| DL9RDZ-1 | 2026-08-30 23:41:26 | 63.98853 | -22.55514 | 150° | 11km/h | 14335m | 5.8m/s | -44.5°C | 1.1% | 0hPa | 0V | 00:00:00 | 00:00:00 | 00:00:00 | |
| DL9RDZ-1 | 2026-08-30 23:41:15 | 63.98874 | -22.55554 | 169° | 15km/h | 14279m | 6.1m/s | -44.6°C | 1.1% | 0hPa | 0V | 00:00:00 | 00:00:00 | 00:00:00 | |
| DL9RDZ-1 | 2026-08-30 23:41:04 | 63.98914 | -22.55606 | 133° | 15km/h | 14218m | 5.4m/s | -44.9°C | 1.1% | 0hPa | 0V | 00:00:00 | 00:00:00 | 00:00:00 | |
| DL9RDZ-1 | 2026-08-30 23:40:54 | 63.98952 | -22.55675 | 136° | 20km/h | 14155m | 7.2m/s | -45.0°C | 1.1% | 0hPa | 0V | 00:00:00 | 00:00:00 | 00:00:00 | |
| DL9RDZ-1 | 2026-08-30 23:40:43 | 63.98979 | -22.55793 | 115° | 22km/h | 14093m | 3.8m/s | -45.1°C | 1.1% | 0hPa | 0V | 00:00:00 | 00:00:00 | 00:00:00 | |
| DL9RDZ-1 | 2026-08-30 23:40:32 | 63.99003 | -22.55925 | 117° | 26km/h | 14038m | 5.3m/s | -45.1°C | 1.2% | 0hPa | 0V | 00:00:00 | 00:00:00 | 00:00:00 | |
| DL9RDZ-1 | 2026-08-30 23:40:21 | 63.99026 | -22.56076 | 103° | 26km/h | 13979m | 4.5m/s | -45.0°C | 1.2% | 0hPa | 0V | 00:00:00 | 00:00:00 | 00:00:00 | |
| DL9RDZ-1 | 2026-08-30 23:40:10 | 63.99044 | -22.56210 | 109° | 22km/h | 13918m | 5.8m/s | -44.6°C | 1.1% | 0hPa | 0V | 00:00:00 | 00:00:00 | 00:00:00 | |
| DL9RDZ-1 | 2026-08-30 23:39:59 | 63.99054 | -22.56345 | 91° | 24km/h | 13857m | 4.7m/s | -44.2°C | 1.1% | 0hPa | 0V | 00:00:00 | 00:00:00 | 00:00:00 | |
| DL9RDZ-1 | 2026-08-30 23:39:49 | 63.99061 | -22.56485 | 100° | 29km/h | 13796m | 6.7m/s | -44.5°C | 1.2% | 0hPa | 0V | 00:00:00 | 00:00:00 | 00:00:00 | |
| DL9RDZ-1 | 2026-08-30 23:39:04 | 63.99067 | -22.57016 | 94° | 11km/h | 13539m | 4.8m/s | -44.5°C | 1.2% | 0hPa | 0V | 00:00:00 | 00:00:00 | 00:00:00 | |
| DL9RDZ-1 | 2026-08-30 23:38:54 | 63.99071 | -22.57086 | 115° | 13km/h | 13486m | 3.1m/s | -44.3°C | 1.2% | 0hPa | 0V | 00:00:00 | 00:00:00 | 00:00:00 | |
| DL9RDZ-1 | 2026-08-30 23:38:44 | 63.99081 | -22.57165 | 112° | 18km/h | 13432m | 4.3m/s | -44.2°C | 1.2% | 0hPa | 0V | 00:00:00 | 00:00:00 | 00:00:00 | |
| DL9RDZ-1 | 2026-08-30 23:38:34 | 63.99100 | -22.57267 | 125° | 22km/h | 13379m | 5.5m/s | -44.1°C | 1.2% | 0hPa | 0V | 00:00:00 | 00:00:00 | 00:00:00 | |
| DL9RDZ-1 | 2026-08-30 23:38:24 | 63.99136 | -22.57382 | 134° | 24km/h | 13318m | 5.4m/s | -44.0°C | 1.2% | 0hPa | 0V | 00:00:00 | 00:00:00 | 00:00:00 | |
| DL9RDZ-1 | 2026-08-30 23:38:13 | 63.99177 | -22.57528 | 115° | 27km/h | 13253m | 7.0m/s | -43.7°C | 1.2% | 0hPa | 0V | 00:00:00 | 00:00:00 | 00:00:00 | |
| DL9RDZ-1 | 2026-08-30 23:38:02 | 63.99201 | -22.57712 | 103° | 37km/h | 13190m | 5.4m/s | -43.7°C | 1.2% | 0hPa | 0V | 00:00:00 | 00:00:00 | 00:00:00 | |
| DL9RDZ-1 | 2026-08-30 23:37:50 | 63.99218 | -22.57923 | 87° | 35km/h | 13130m | 5.3m/s | -43.8°C | 1.2% | 0hPa | 0V | 00:00:00 | 00:00:00 | 00:00:00 | |
| DL9RDZ-1 | 2026-08-30 23:37:39 | 63.99214 | -22.58135 | 93° | 31km/h | 13071m | 6.5m/s | -43.5°C | 1.2% | 0hPa | 0V | 00:00:00 | 00:00:00 | 00:00:00 | |
| DL9RDZ-1 | 2026-08-30 23:37:29 | 63.99212 | -22.58302 | 85° | 31km/h | 13016m | 6.7m/s | -43.5°C | 1.2% | 0hPa | 0V | 00:00:00 | 00:00:00 | 00:00:00 | |
| DL9RDZ-1 | 2026-08-30 23:37:18 | 63.99195 | -22.58500 | 80° | 33km/h | 12954m | 4.4m/s | -43.4°C | 1.2% | 0hPa | 0V | 00:00:00 | 00:00:00 | 00:00:00 | |
| DL9RDZ-1 | 2026-08-30 23:36:57 | 63.99174 | -22.58792 | 69° | 18km/h | 12841m | 5.0m/s | -43.5°C | 1.2% | 0hPa | 0V | 00:00:00 | 00:00:00 | 00:00:00 | |
| DL9RDZ-1 | 2026-08-30 23:36:47 | 63.99162 | -22.58903 | 93° | 20km/h | 12786m | 6.3m/s | -43.3°C | 1.3% | 0hPa | 0V | 00:00:00 | 00:00:00 | 00:00:00 | |
| DL9RDZ-1 | 2026-08-30 23:36:07 | 63.99216 | -22.59447 | 106° | 24km/h | 12573m | 4.7m/s | -43.2°C | 1.2% | 0hPa | 0V | 00:00:00 | 00:00:00 | 00:00:00 | |
| DL9RDZ-1 | 2026-08-30 23:35:54 | 63.99220 | -22.59630 | 84° | 26km/h | 12506m | 5.5m/s | -43.2°C | 1.2% | 0hPa | 0V | 00:00:00 | 00:00:00 | 00:00:00 | |
| DL9RDZ-1 | 2026-08-30 23:35:45 | 63.99212 | -22.59769 | 73° | 24km/h | 12453m | 5.7m/s | -43.3°C | 1.2% | 0hPa | 0V | 00:00:00 | 00:00:00 | 00:00:00 | |
| DL9RDZ-1 | 2026-08-30 23:35:34 | 63.99188 | -22.59903 | 76° | 22km/h | 12395m | 5.1m/s | -43.2°C | 1.2% | 0hPa | 0V | 00:00:00 | 00:00:00 | 00:00:00 | |
| DL9RDZ-1 | 2026-08-30 23:35:23 | 63.99166 | -22.60009 | 80° | 18km/h | 12345m | 4.0m/s | -43.1°C | 1.2% | 0hPa | 0V | 00:00:00 | 00:00:00 | 00:00:00 | |
| DL9RDZ-1 | 2026-08-30 23:35:13 | 63.99155 | -22.60121 | 71° | 18km/h | 12288m | 7.1m/s | -43.0°C | 1.2% | 0hPa | 0V | 00:00:00 | 00:00:00 | 00:00:00 | |
| DL9RDZ-1 | 2026-08-30 23:35:00 | 63.99147 | -22.60244 | 108° | 16km/h | 12207m | 5.7m/s | -43.1°C | 1.3% | 0hPa | 0V | 00:00:00 | 00:00:00 | 00:00:00 | |
| DL9RDZ-1 | 2026-08-30 23:34:50 | 63.99142 | -22.60327 | 60° | 18km/h | 12152m | 4.8m/s | -43.5°C | 1.3% | 0hPa | 0V | 00:00:00 | 00:00:00 | 00:00:00 | |
| DL9RDZ-1 | 2026-08-30 23:34:39 | 63.99138 | -22.60439 | 94° | 11km/h | 12094m | 4.8m/s | -43.5°C | 1.3% | 0hPa | 0V | 00:00:00 | 00:00:00 | 00:00:00 | |
| DL9RDZ-1 | 2026-08-30 23:34:28 | 63.99138 | -22.60516 | 101° | 13km/h | 12038m | 5.1m/s | -43.5°C | 1.3% | 0hPa | 0V | 00:00:00 | 00:00:00 | 00:00:00 | |
| DL9RDZ-1 | 2026-08-30 23:34:18 | 63.99144 | -22.60603 | 77° | 13km/h | 11980m | 5.9m/s | -43.5°C | 1.3% | 0hPa | 0V | 00:00:00 | 00:00:00 | 00:00:00 | |
| DL9RDZ-1 | 2026-08-30 23:34:07 | 63.99139 | -22.60734 | 89° | 20km/h | 11924m | 6.2m/s | -43.3°C | 1.3% | 0hPa | 0V | 00:00:00 | 00:00:00 | 00:00:00 | |
| DL9RDZ-1 | 2026-08-30 23:33:55 | 63.99135 | -22.60842 | 88° | 20km/h | 11864m | 5.5m/s | -43.2°C | 1.3% | 0hPa | 0V | 00:00:00 | 00:00:00 | 00:00:00 | |
| DL9RDZ-1 | 2026-08-30 23:33:45 | 63.99136 | -22.60921 | 112° | 13km/h | 11807m | 4.2m/s | -43.3°C | 1.4% | 0hPa | 0V | 00:00:00 | 00:00:00 | 00:00:00 | |
| DL9RDZ-1 | 2026-08-30 23:33:34 | 63.99138 | -22.60998 | 99° | 16km/h | 11755m | 5.5m/s | -43.4°C | 1.4% | 0hPa | 0V | 00:00:00 | 00:00:00 | 00:00:00 | |
| DL9RDZ-1 | 2026-08-30 23:33:23 | 63.99163 | -22.61101 | 135° | 18km/h | 11692m | 5.6m/s | -43.1°C | 1.4% | 0hPa | 0V | 00:00:00 | 00:00:00 | 00:00:00 | |
| DL9RDZ-1 | 2026-08-30 23:33:13 | 63.99185 | -22.61187 | 115° | 20km/h | 11639m | 5.4m/s | -43.3°C | 1.4% | 0hPa | 0V | 00:00:00 | 00:00:00 | 00:00:00 | |
| DL9RDZ-1 | 2026-08-30 23:33:03 | 63.99203 | -22.61341 | 109° | 27km/h | 11583m | 4.2m/s | -43.6°C | 1.4% | 0hPa | 0V | 00:00:00 | 00:00:00 | 00:00:00 | |
| DL9RDZ-1 | 2026-08-30 23:32:46 | 63.99203 | -22.61590 | 81° | 20km/h | 11501m | 4.8m/s | -43.5°C | 1.4% | 0hPa | 0V | 00:00:00 | 00:00:00 | 00:00:00 | |
| DL9RDZ-1 | 2026-08-30 23:32:35 | 63.99186 | -22.61718 | 84° | 20km/h | 11445m | 5.5m/s | -43.3°C | 1.4% | 0hPa | 0V | 00:00:00 | 00:00:00 | 00:00:00 | |
| DL9RDZ-1 | 2026-08-30 23:32:22 | 63.99174 | -22.61856 | 94° | 15km/h | 11377m | 6.1m/s | -43.1°C | 1.4% | 0hPa | 0V | 00:00:00 | 00:00:00 | 00:00:00 | |
| DL9RDZ-1 | 2026-08-30 23:32:13 | 63.99167 | -22.61949 | 92° | 18km/h | 11323m | 3.6m/s | -43.4°C | 1.5% | 0hPa | 0V | 00:00:00 | 00:00:00 | 00:00:00 | |
| DL9RDZ-1 | 2026-08-30 23:32:01 | 63.99170 | -22.62042 | 87° | 22km/h | 11258m | 5.6m/s | -43.4°C | 1.5% | 0hPa | 0V | 00:00:00 | 00:00:00 | 00:00:00 | |
| DL9RDZ-1 | 2026-08-30 23:31:50 | 63.99169 | -22.62175 | 78° | 18km/h | 11196m | 7.0m/s | -43.5°C | 1.5% | 0hPa | 0V | 00:00:00 | 00:00:00 | 00:00:00 | |
| DL9RDZ-1 | 2026-08-30 23:31:40 | 63.99166 | -22.62280 | 103° | 16km/h | 11145m | 3.6m/s | -43.5°C | 1.6% | 0hPa | 0V | 00:00:00 | 00:00:00 | 00:00:00 | |
| DL9RDZ-1 | 2026-08-30 23:31:29 | 63.99174 | -22.62460 | 83° | 31km/h | 11086m | 5.6m/s | -43.8°C | 1.7% | 0hPa | 0V | 00:00:00 | 00:00:00 | 00:00:00 | |
| DL9RDZ-1 | 2026-08-30 23:31:19 | 63.99167 | -22.62619 | 90° | 22km/h | 11020m | 6.8m/s | -43.4°C | 1.6% | 0hPa | 0V | 00:00:00 | 00:00:00 | 00:00:00 | |
| DL9RDZ-1 | 2026-08-30 23:31:08 | 63.99171 | -22.62773 | 100° | 27km/h | 10961m | 5.7m/s | -43.2°C | 1.6% | 0hPa | 0V | 00:00:00 | 00:00:00 | 00:00:00 | |
| DL9RDZ-1 | 2026-08-30 23:30:48 | 63.99197 | -22.63095 | 86° | 27km/h | 10855m | 5.8m/s | -43.3°C | 1.7% | 0hPa | 0V | 00:00:00 | 00:00:00 | 00:00:00 | |
| DL9RDZ-1 | 2026-08-30 23:30:36 | 63.99203 | -22.63273 | 108° | 31km/h | 10802m | 5.2m/s | -43.2°C | 1.9% | 0hPa | 0V | 00:00:00 | 00:00:00 | 00:00:00 | |
| DL9RDZ-1 | 2026-08-30 23:30:26 | 63.99224 | -22.63462 | 123° | 26km/h | 10745m | 5.0m/s | -43.4°C | 1.9% | 0hPa | 0V | 00:00:00 | 00:00:00 | 00:00:00 | |
| DL9RDZ-1 | 2026-08-30 23:30:15 | 63.99236 | -22.63586 | 119° | 24km/h | 10680m | 5.0m/s | -43.7°C | 2.0% | 0hPa | 0V | 00:00:00 | 00:00:00 | 00:00:00 | |
| DL9RDZ-1 | 2026-08-30 23:30:04 | 63.99265 | -22.63677 | 118° | 18km/h | 10623m | 5.4m/s | -43.9°C | 2.3% | 0hPa | 0V | 00:00:00 | 00:00:00 | 00:00:00 | |
| DL9RDZ-1 | 2026-08-30 23:29:54 | 63.99270 | -22.63810 | 71° | 18km/h | 10558m | 5.4m/s | -44.5°C | 2.4% | 0hPa | 0V | 00:00:00 | 00:00:00 | 00:00:00 | |
| DL9RDZ-1 | 2026-08-30 23:29:43 | 63.99270 | -22.63957 | 88° | 27km/h | 10495m | 4.7m/s | -44.8°C | 2.5% | 0hPa | 0V | 00:00:00 | 00:00:00 | 00:00:00 | |
| DL9RDZ-1 | 2026-08-30 23:29:33 | 63.99276 | -22.64058 | 110° | 22km/h | 10435m | 6.2m/s | -45.1°C | 2.6% | 0hPa | 0V | 00:00:00 | 00:00:00 | 00:00:00 | |
| DL9RDZ-1 | 2026-08-30 23:29:22 | 63.99293 | -22.64148 | 113° | 13km/h | 10365m | 8.1m/s | -44.9°C | 2.6% | 0hPa | 0V | 00:00:00 | 00:00:00 | 00:00:00 | |
| DL9RDZ-1 | 2026-08-30 23:29:11 | 63.99303 | -22.64254 | 104° | 13km/h | 10298m | 4.3m/s | -44.8°C | 2.7% | 0hPa | 0V | 00:00:00 | 00:00:00 | 00:00:00 | |
| DL9RDZ-1 | 2026-08-30 23:29:01 | 63.99298 | -22.64346 | 98° | 18km/h | 10244m | 5.5m/s | -45.2°C | 3.0% | 0hPa | 0V | 00:00:00 | 00:00:00 | 00:00:00 | |
| DL9RDZ-1 | 2026-08-30 23:28:49 | 63.99300 | -22.64410 | 106° | 16km/h | 10192m | 5.4m/s | -45.2°C | 3.2% | 0hPa | 0V | 00:00:00 | 00:00:00 | 00:00:00 | |
| DL9RDZ-1 | 2026-08-30 23:28:38 | 63.99297 | -22.64519 | 72° | 18km/h | 10133m | 6.3m/s | -45.3°C | 3.3% | 0hPa | 0V | 00:00:00 | 00:00:00 | 00:00:00 | |
| DL9RDZ-1 | 2026-08-30 23:28:27 | 63.99288 | -22.64642 | 68° | 24km/h | 10073m | 6.1m/s | -45.2°C | 3.5% | 0hPa | 0V | 00:00:00 | 00:00:00 | 00:00:00 | |
| DL9RDZ-1 | 2026-08-30 23:28:18 | 63.99283 | -22.64737 | 95° | 26km/h | 10021m | 3.9m/s | -45.1°C | 4.0% | 0hPa | 0V | 00:00:00 | 00:00:00 | 00:00:00 | |
| DL9RDZ-1 | 2026-08-30 23:28:06 | 63.99292 | -22.64842 | 96° | 18km/h | 9951m | 7.7m/s | -45.5°C | 4.6% | 0hPa | 0V | 00:00:00 | 00:00:00 | 00:00:00 | |
| DL9RDZ-1 | 2026-08-30 23:27:56 | 63.99289 | -22.64943 | 76° | 15km/h | 9888m | 5.7m/s | -46.2°C | 5.6% | 0hPa | 0V | 00:00:00 | 00:00:00 | 00:00:00 | |
| DL9RDZ-1 | 2026-08-30 23:27:46 | 63.99307 | -22.65035 | 104° | 15km/h | 9829m | 5.2m/s | -46.5°C | 5.9% | 0hPa | 0V | 00:00:00 | 00:00:00 | 00:00:00 | |
| DL9RDZ-1 | 2026-08-30 23:27:35 | 63.99308 | -22.65143 | 127° | 15km/h | 9756m | 4.5m/s | -46.5°C | 7.5% | 0hPa | 0V | 00:00:00 | 00:00:00 | 00:00:00 | |
| DL9RDZ-1 | 2026-08-30 23:27:24 | 63.99301 | -22.65163 | 79° | 5km/h | 9688m | 5.6m/s | -47.9°C | 9.3% | 0hPa | 0V | 00:00:00 | 00:00:00 | 00:00:00 | |
| DL9RDZ-1 | 2026-08-30 23:27:13 | 63.99327 | -22.65200 | 125° | 16km/h | 9630m | 4.6m/s | -47.9°C | 9.2% | 0hPa | 0V | 00:00:00 | 00:00:00 | 00:00:00 | |
| DL9RDZ-1 | 2026-08-30 23:27:02 | 63.99350 | -22.65279 | 125° | 13km/h | 9565m | 6.4m/s | -48.2°C | 10.0% | 0hPa | 0V | 00:00:00 | 00:00:00 | 00:00:00 | |
| DL9RDZ-1 | 2026-08-30 23:26:52 | 63.99358 | -22.65380 | 101° | 20km/h | 9512m | 5.3m/s | -48.8°C | 11.2% | 0hPa | 0V | 00:00:00 | 00:00:00 | 00:00:00 | |
| DL9RDZ-1 | 2026-08-30 23:26:41 | 63.99372 | -22.65449 | 133° | 22km/h | 9450m | 5.7m/s | -49.0°C | 13.9% | 0hPa | 0V | 00:00:00 | 00:00:00 | 00:00:00 | |
| DL9RDZ-1 | 2026-08-30 23:24:54 | 63.99480 | -22.65861 | 115° | 16km/h | 8871m | 4.7m/s | -50.6°C | 36.6% | 0hPa | 0V | 00:00:00 | 00:00:00 | 00:00:00 | |
| DL9RDZ-1 | 2026-08-30 23:24:43 | 63.99490 | -22.65864 | 34° | 7km/h | 8801m | 4.7m/s | -50.8°C | 43.2% | 0hPa | 0V | 00:00:00 | 00:00:00 | 00:00:00 | |
| DL9RDZ-1 | 2026-08-30 23:24:33 | 63.99482 | -22.65896 | 197° | 4km/h | 8740m | 5.1m/s | -50.8°C | 43.4% | 0hPa | 0V | 00:00:00 | 00:00:00 | 00:00:00 | |
| DL9RDZ-1 | 2026-08-30 23:24:22 | 63.99501 | -22.65925 | 354° | 7km/h | 8675m | 5.9m/s | -50.3°C | 43.6% | 0hPa | 0V | 00:00:00 | 00:00:00 | 00:00:00 | |
| DL9RDZ-1 | 2026-08-30 23:24:11 | 63.99496 | -22.65951 | 79° | 18km/h | 8618m | 5.8m/s | -50.2°C | 47.2% | 0hPa | 0V | 00:00:00 | 00:00:00 | 00:00:00 | |
| DL9RDZ-1 | 2026-08-30 23:24:01 | 63.99495 | -22.65999 | 92° | 5km/h | 8560m | 5.9m/s | -50.1°C | 49.2% | 0hPa | 0V | 00:00:00 | 00:00:00 | 00:00:00 | |
| DL9RDZ-1 | 2026-08-30 23:23:50 | 63.99484 | -22.66077 | 94° | 15km/h | 8495m | 7.5m/s | -49.8°C | 49.3% | 0hPa | 0V | 00:00:00 | 00:00:00 | 00:00:00 | |
| DL9RDZ-1 | 2026-08-30 23:23:39 | 63.99476 | -22.66111 | 7° | 11km/h | 8427m | 7.9m/s | -49.7°C | 53.8% | 0hPa | 0V | 00:00:00 | 00:00:00 | 00:00:00 | |
| DL9RDZ-1 | 2026-08-30 23:23:29 | 63.99453 | -22.66139 | 67° | 13km/h | 8357m | 3.3m/s | -49.6°C | 56.7% | 0hPa | 0V | 00:00:00 | 00:00:00 | 00:00:00 | |
| DL9RDZ-1 | 2026-08-30 23:23:17 | 63.99452 | -22.66184 | 2° | 11km/h | 8293m | 4.0m/s | -49.2°C | 58.7% | 0hPa | 0V | 00:00:00 | 00:00:00 | 00:00:00 | |
| DL9RDZ-1 | 2026-08-30 23:23:06 | 63.99444 | -22.66228 | 121° | 11km/h | 8231m | 5.2m/s | -48.9°C | 60.4% | 0hPa | 0V | 00:00:00 | 00:00:00 | 00:00:00 | |
| DL9RDZ-1 | 2026-08-30 23:22:57 | 63.99431 | -22.66298 | 3° | 4km/h | 8177m | 4.7m/s | -48.6°C | 59.6% | 0hPa | 0V | 00:00:00 | 00:00:00 | 00:00:00 | |
| DL9RDZ-1 | 2026-08-30 23:22:46 | 63.99428 | -22.66340 | 14° | 9km/h | 8119m | 5.5m/s | -48.2°C | 59.8% | 0hPa | 0V | 00:00:00 | 00:00:00 | 00:00:00 | |
| DL9RDZ-1 | 2026-08-30 23:22:35 | 63.99419 | -22.66383 | 65° | 7km/h | 8045m | 5.8m/s | -47.7°C | 60.1% | 0hPa | 0V | 00:00:00 | 00:00:00 | 00:00:00 | |
| DL9RDZ-1 | 2026-08-30 23:22:24 | 63.99404 | -22.66465 | 94° | 20km/h | 7971m | 6.4m/s | -47.3°C | 61.0% | 0hPa | 0V | 00:00:00 | 00:00:00 | 00:00:00 | |
| DL9RDZ-1 | 2026-08-30 23:22:14 | 63.99399 | -22.66525 | 92° | 16km/h | 7913m | 5.1m/s | -46.9°C | 60.4% | 0hPa | 0V | 00:00:00 | 00:00:00 | 00:00:00 | |
| DL9RDZ-1 | 2026-08-30 23:22:03 | 63.99397 | -22.66643 | 116° | 22km/h | 7841m | 9.3m/s | -46.2°C | 58.0% | 0hPa | 0V | 00:00:00 | 00:00:00 | 00:00:00 | |
| DL9RDZ-1 | 2026-08-30 23:21:52 | 63.99398 | -22.66740 | 63° | 20km/h | 7774m | 6.3m/s | -45.7°C | 58.4% | 0hPa | 0V | 00:00:00 | 00:00:00 | 00:00:00 | |
| DL9RDZ-1 | 2026-08-30 23:21:42 | 63.99379 | -22.66801 | 54° | 26km/h | 7708m | 4.2m/s | -45.4°C | 68.3% | 0hPa | 0V | 00:00:00 | 00:00:00 | 00:00:00 | |
| DL9RDZ-1 | 2026-08-30 23:21:31 | 63.99329 | -22.66869 | 68° | 20km/h | 7645m | 8.9m/s | -45.1°C | 66.2% | 0hPa | 0V | 00:00:00 | 00:00:00 | 00:00:00 | |
| DL9RDZ-1 | 2026-08-30 23:21:20 | 63.99290 | -22.66933 | 289° | 4km/h | 7580m | 7.2m/s | -44.5°C | 61.9% | 0hPa | 0V | 00:00:00 | 00:00:00 | 00:00:00 | |
| DL9RDZ-1 | 2026-08-30 23:21:09 | 63.99264 | -22.67009 | 103° | 13km/h | 7515m | 6.9m/s | -44.2°C | 56.6% | 0hPa | 0V | 00:00:00 | 00:00:00 | 00:00:00 | |
| DL9RDZ-1 | 2026-08-30 23:20:58 | 63.99246 | -22.67120 | 64° | 24km/h | 7455m | 5.0m/s | -43.6°C | 58.5% | 0hPa | 0V | 00:00:00 | 00:00:00 | 00:00:00 | |
| DL9RDZ-1 | 2026-08-30 23:20:47 | 63.99226 | -22.67193 | 57° | 13km/h | 7386m | 7.3m/s | -42.9°C | 51.1% | 0hPa | 0V | 00:00:00 | 00:00:00 | 00:00:00 | |
| DL9RDZ-1 | 2026-08-30 23:20:37 | 63.99218 | -22.67306 | 73° | 27km/h | 7326m | 5.2m/s | -42.4°C | 53.3% | 0hPa | 0V | 00:00:00 | 00:00:00 | 00:00:00 | |
| DL9RDZ-1 | 2026-08-30 23:20:27 | 63.99214 | -22.67371 | 69° | 13km/h | 7267m | 5.2m/s | -41.9°C | 52.6% | 0hPa | 0V | 00:00:00 | 00:00:00 | 00:00:00 | |
| DL9RDZ-1 | 2026-08-30 23:20:16 | 63.99194 | -22.67468 | 75° | 11km/h | 7197m | 6.1m/s | -41.3°C | 51.7% | 0hPa | 0V | 00:00:00 | 00:00:00 | 00:00:00 | |
| DL9RDZ-1 | 2026-08-30 23:20:05 | 63.99169 | -22.67558 | 103° | 9km/h | 7126m | 5.1m/s | -40.7°C | 50.9% | 0hPa | 0V | 00:00:00 | 00:00:00 | 00:00:00 | |
| DL9RDZ-1 | 2026-08-30 23:19:54 | 63.99165 | -22.67663 | 89° | 22km/h | 7058m | 6.2m/s | -40.1°C | 51.0% | 0hPa | 0V | 00:00:00 | 00:00:00 | 00:00:00 | |
| DL9RDZ-1 | 2026-08-30 23:19:33 | 63.99157 | -22.67850 | 82° | 18km/h | 6955m | 4.1m/s | -39.1°C | 48.2% | 0hPa | 0V | 00:00:00 | 00:00:00 | 00:00:00 | |
| DL9RDZ-1 | 2026-08-30 23:19:23 | 63.99144 | -22.67918 | 92° | 11km/h | 6894m | 4.6m/s | -38.5°C | 47.7% | 0hPa | 0V | 00:00:00 | 00:00:00 | 00:00:00 | |
| DL9RDZ-1 | 2026-08-30 23:19:13 | 63.99108 | -22.68008 | 69° | 16km/h | 6840m | 5.3m/s | -38.1°C | 46.3% | 0hPa | 0V | 00:00:00 | 00:00:00 | 00:00:00 | |
| DL9RDZ-1 | 2026-08-30 23:19:02 | 63.99110 | -22.68116 | 80° | 26km/h | 6781m | 4.4m/s | -37.7°C | 54.6% | 0hPa | 0V | 00:00:00 | 00:00:00 | 00:00:00 | |
| DL9RDZ-1 | 2026-08-30 23:18:51 | 63.99097 | -22.68209 | 79° | 20km/h | 6714m | 4.1m/s | -37.2°C | 56.3% | 0hPa | 0V | 00:00:00 | 00:00:00 | 00:00:00 | |
| DL9RDZ-1 | 2026-08-30 23:18:40 | 63.99089 | -22.68299 | 83° | 15km/h | 6663m | 3.8m/s | -36.9°C | 57.5% | 0hPa | 0V | 00:00:00 | 00:00:00 | 00:00:00 | |
| DL9RDZ-1 | 2026-08-30 23:18:29 | 63.99071 | -22.68444 | 84° | 33km/h | 6603m | 5.5m/s | -36.3°C | 54.9% | 0hPa | 0V | 00:00:00 | 00:00:00 | 00:00:00 | |
| DL9RDZ-1 | 2026-08-30 23:18:18 | 63.99062 | -22.68587 | 113° | 24km/h | 6541m | 4.7m/s | -35.8°C | 54.1% | 0hPa | 0V | 00:00:00 | 00:00:00 | 00:00:00 | |
| DL9RDZ-1 | 2026-08-30 23:18:07 | 63.99061 | -22.68779 | 86° | 33km/h | 6473m | 8.5m/s | -35.3°C | 57.0% | 0hPa | 0V | 00:00:00 | 00:00:00 | 00:00:00 | |
| DL9RDZ-1 | 2026-08-30 23:17:57 | 63.99068 | -22.68894 | 107° | 20km/h | 6420m | 5.8m/s | -34.9°C | 63.2% | 0hPa | 0V | 00:00:00 | 00:00:00 | 00:00:00 | |
| DL9RDZ-1 | 2026-08-30 23:17:45 | 63.99073 | -22.69032 | 98° | 16km/h | 6350m | 3.9m/s | -34.4°C | 66.3% | 0hPa | 0V | 00:00:00 | 00:00:00 | 00:00:00 | |
| DL9RDZ-1 | 2026-08-30 23:17:35 | 63.99069 | -22.69165 | 81° | 33km/h | 6291m | 5.8m/s | -33.9°C | 63.1% | 0hPa | 0V | 00:00:00 | 00:00:00 | 00:00:00 | |
| DL9RDZ-1 | 2026-08-30 23:17:24 | 63.99040 | -22.69283 | 80° | 24km/h | 6232m | 4.4m/s | -33.4°C | 64.6% | 0hPa | 0V | 00:00:00 | 00:00:00 | 00:00:00 | |
| DL9RDZ-1 | 2026-08-30 23:17:14 | 63.99027 | -22.69367 | 39° | 18km/h | 6173m | 6.0m/s | -33.0°C | 65.1% | 0hPa | 0V | 00:00:00 | 00:00:00 | 00:00:00 | |
| DL9RDZ-1 | 2026-08-30 23:17:03 | 63.98990 | -22.69434 | 51° | 16km/h | 6114m | 4.1m/s | -32.7°C | 69.8% | 0hPa | 0V | 00:00:00 | 00:00:00 | 00:00:00 | |
| DL9RDZ-1 | 2026-08-30 23:16:53 | 63.98969 | -22.69501 | 43° | 18km/h | 6050m | 4.9m/s | -32.3°C | 70.2% | 0hPa | 0V | 00:00:00 | 00:00:00 | 00:00:00 | |
| DL9RDZ-1 | 2026-08-30 23:16:42 | 63.98956 | -22.69582 | 79° | 24km/h | 5988m | 5.2m/s | -31.8°C | 69.4% | 0hPa | 0V | 00:00:00 | 00:00:00 | 00:00:00 | |
| DL9RDZ-1 | 2026-08-30 23:16:32 | 63.98960 | -22.69668 | 72° | 18km/h | 5930m | 4.8m/s | -31.3°C | 64.2% | 0hPa | 0V | 00:00:00 | 00:00:00 | 00:00:00 | |
| DL9RDZ-1 | 2026-08-30 23:16:21 | 63.98929 | -22.69719 | 32° | 16km/h | 5867m | 4.2m/s | -30.7°C | 59.9% | 0hPa | 0V | 00:00:00 | 00:00:00 | 00:00:00 | |
| DL9RDZ-1 | 2026-08-30 23:16:11 | 63.98907 | -22.69755 | 69° | 4km/h | 5809m | 8.7m/s | -30.2°C | 55.1% | 0hPa | 0V | 00:00:00 | 00:00:00 | 00:00:00 | |
| DL9RDZ-1 | 2026-08-30 23:16:00 | 63.98892 | -22.69801 | 57° | 4km/h | 5744m | 4.3m/s | -29.7°C | 58.0% | 0hPa | 0V | 00:00:00 | 00:00:00 | 00:00:00 | |
| DL9RDZ-1 | 2026-08-30 23:15:50 | 63.98897 | -22.69867 | 62° | 13km/h | 5689m | 6.1m/s | -29.4°C | 59.9% | 0hPa | 0V | 00:00:00 | 00:00:00 | 00:00:00 | |
| DL9RDZ-1 | 2026-08-30 23:15:39 | 63.98911 | -22.69895 | 175° | 7km/h | 5626m | 7.1m/s | -28.9°C | 58.0% | 0hPa | 0V | 00:00:00 | 00:00:00 | 00:00:00 | |
| DL9RDZ-1 | 2026-08-30 23:15:28 | 63.98917 | -22.69897 | 217° | 9km/h | 5554m | 4.2m/s | -28.3°C | 60.9% | 0hPa | 0V | 00:00:00 | 00:00:00 | 00:00:00 | |
| DL9RDZ-1 | 2026-08-30 23:15:17 | 63.98908 | -22.69901 | 143° | 7km/h | 5488m | 4.8m/s | -27.9°C | 56.0% | 0hPa | 0V | 00:00:00 | 00:00:00 | 00:00:00 | |
| DL9RDZ-1 | 2026-08-30 23:15:07 | 63.98923 | -22.69928 | 152° | 5km/h | 5427m | 6.9m/s | -27.5°C | 50.7% | 0hPa | 0V | 00:00:00 | 00:00:00 | 00:00:00 | |
| DL9RDZ-1 | 2026-08-30 23:14:56 | 63.98915 | -22.69956 | 352° | 7km/h | 5360m | 6.4m/s | -27.1°C | 46.4% | 0hPa | 0V | 00:00:00 | 00:00:00 | 00:00:00 | |
| DL9RDZ-1 | 2026-08-30 23:14:45 | 63.98921 | -22.69969 | 57° | 9km/h | 5294m | 5.7m/s | -26.6°C | 49.1% | 0hPa | 0V | 00:00:00 | 00:00:00 | 00:00:00 | |
| DL9RDZ-1 | 2026-08-30 23:14:34 | 63.98918 | -22.69990 | 310° | 5km/h | 5229m | 4.7m/s | -26.1°C | 50.8% | 0hPa | 0V | 00:00:00 | 00:00:00 | 00:00:00 | |
| DL9RDZ-1 | 2026-08-30 23:14:24 | 63.98919 | -22.70003 | 53° | 5km/h | 5164m | 6.1m/s | -25.5°C | 47.7% | 0hPa | 0V | 00:00:00 | 00:00:00 | 00:00:00 | |
| DL9RDZ-1 | 2026-08-30 23:14:13 | 63.98928 | -22.70012 | 131° | 11km/h | 5096m | 5.9m/s | -25.0°C | 38.6% | 0hPa | 0V | 00:00:00 | 00:00:00 | 00:00:00 | |
| DL9RDZ-1 | 2026-08-30 23:14:02 | 63.98931 | -22.70032 | 262° | 4km/h | 5027m | 8.1m/s | -25.1°C | 59.8% | 0hPa | 0V | 00:00:00 | 00:00:00 | 00:00:00 | |
| DL9RDZ-1 | 2026-08-30 23:13:51 | 63.98932 | -22.70049 | 84° | 9km/h | 4958m | 4.9m/s | -24.9°C | 81.7% | 0hPa | 0V | 00:00:00 | 00:00:00 | 00:00:00 | |
| DL9RDZ-1 | 2026-08-30 23:13:40 | 63.98895 | -22.70039 | 326° | 16km/h | 4889m | 6.2m/s | -24.5°C | 86.1% | 0hPa | 0V | 00:00:00 | 00:00:00 | 00:00:00 | |
| DL9RDZ-1 | 2026-08-30 23:13:29 | 63.98867 | -22.70053 | 353° | 16km/h | 4816m | 6.0m/s | -23.9°C | 92.1% | 0hPa | 0V | 00:00:00 | 00:00:00 | 00:00:00 | |
| DL9RDZ-1 | 2026-08-30 23:13:18 | 63.98843 | -22.70056 | 336° | 22km/h | 4750m | 6.9m/s | -23.3°C | 91.9% | 0hPa | 0V | 00:00:00 | 00:00:00 | 00:00:00 | |
| DL9RDZ-1 | 2026-08-30 23:13:08 | 63.98805 | -22.70008 | 19° | 5km/h | 4680m | 5.6m/s | -22.8°C | 93.1% | 0hPa | 0V | 00:00:00 | 00:00:00 | 00:00:00 | |
| DL9RDZ-1 | 2026-08-30 23:12:48 | 63.98767 | -22.69969 | 308° | 13km/h | 4559m | 5.9m/s | -21.7°C | 84.7% | 0hPa | 0V | 00:00:00 | 00:00:00 | 00:00:00 | |
| DL9RDZ-1 | 2026-08-30 23:12:36 | 63.98754 | -22.69938 | 227° | 4km/h | 4491m | 4.7m/s | -21.1°C | 73.7% | 0hPa | 0V | 00:00:00 | 00:00:00 | 00:00:00 | |
| DL9RDZ-1 | 2026-08-30 23:12:26 | 63.98741 | -22.69894 | 290° | 13km/h | 4423m | 6.2m/s | -20.5°C | 69.3% | 0hPa | 0V | 00:00:00 | 00:00:00 | 00:00:00 | |
| DL9RDZ-1 | 2026-08-30 23:12:15 | 63.98711 | -22.69855 | 314° | 24km/h | 4366m | 5.4m/s | -19.9°C | 65.4% | 0hPa | 0V | 00:00:00 | 00:00:00 | 00:00:00 | |
| DL9RDZ-1 | 2026-08-30 23:12:05 | 63.98698 | -22.69761 | 267° | 13km/h | 4306m | 5.0m/s | -19.4°C | 64.8% | 0hPa | 0V | 00:00:00 | 00:00:00 | 00:00:00 | |
| DL9RDZ-1 | 2026-08-30 23:11:54 | 63.98673 | -22.69674 | 292° | 22km/h | 4241m | 7.9m/s | -18.9°C | 65.0% | 0hPa | 0V | 00:00:00 | 00:00:00 | 00:00:00 | |
| DL9RDZ-1 | 2026-08-30 23:11:43 | 63.98653 | -22.69582 | 259° | 13km/h | 4175m | 6.5m/s | -18.3°C | 63.1% | 0hPa | 0V | 00:00:00 | 00:00:00 | 00:00:00 | |
| DL9RDZ-1 | 2026-08-30 23:11:32 | 63.98621 | -22.69510 | 313° | 26km/h | 4111m | 4.6m/s | -17.9°C | 65.8% | 0hPa | 0V | 00:00:00 | 00:00:00 | 00:00:00 | |
| DL9RDZ-1 | 2026-08-30 23:11:21 | 63.98580 | -22.69444 | 307° | 11km/h | 4049m | 5.3m/s | -17.3°C | 64.7% | 0hPa | 0V | 00:00:00 | 00:00:00 | 00:00:00 | |
| DL9RDZ-1 | 2026-08-30 23:11:11 | 63.98552 | -22.69382 | 302° | 24km/h | 3986m | 5.5m/s | -17.2°C | 78.1% | 0hPa | 0V | 00:00:00 | 00:00:00 | 00:00:00 | |
| DL9RDZ-1 | 2026-08-30 23:11:01 | 63.98546 | -22.69290 | 251° | 13km/h | 3921m | 5.7m/s | -16.7°C | 78.2% | 0hPa | 0V | 00:00:00 | 00:00:00 | 00:00:00 | |
| DL9RDZ-1 | 2026-08-30 23:10:50 | 63.98537 | -22.69179 | 288° | 24km/h | 3852m | 5.1m/s | -16.1°C | 75.8% | 0hPa | 0V | 00:00:00 | 00:00:00 | 00:00:00 | |
| DL9RDZ-1 | 2026-08-30 23:10:39 | 63.98519 | -22.69070 | 289° | 31km/h | 3787m | 8.3m/s | -15.6°C | 77.0% | 0hPa | 0V | 00:00:00 | 00:00:00 | 00:00:00 | |
| DL9RDZ-1 | 2026-08-30 23:10:28 | 63.98503 | -22.68917 | 283° | 20km/h | 3717m | 4.8m/s | -15.1°C | 73.7% | 0hPa | 0V | 00:00:00 | 00:00:00 | 00:00:00 | |
| DL9RDZ-1 | 2026-08-30 23:10:18 | 63.98486 | -22.68823 | 328° | 24km/h | 3655m | 7.3m/s | -14.9°C | 76.5% | 0hPa | 0V | 00:00:00 | 00:00:00 | 00:00:00 | |
| DL9RDZ-1 | 2026-08-30 23:10:07 | 63.98447 | -22.68675 | 276° | 31km/h | 3586m | 5.8m/s | -14.3°C | 71.5% | 0hPa | 0V | 00:00:00 | 00:00:00 | 00:00:00 | |
| DL9RDZ-1 | 2026-08-30 23:09:57 | 63.98424 | -22.68547 | 318° | 22km/h | 3522m | 5.9m/s | -13.9°C | 71.5% | 0hPa | 0V | 00:00:00 | 00:00:00 | 00:00:00 | |
| DL9RDZ-1 | 2026-08-30 23:09:45 | 63.98395 | -22.68412 | 316° | 27km/h | 3455m | 6.7m/s | -13.3°C | 67.8% | 0hPa | 0V | 00:00:00 | 00:00:00 | 00:00:00 | |
| DL9RDZ-1 | 2026-08-30 23:09:34 | 63.98368 | -22.68306 | 315° | 27km/h | 3395m | 5.0m/s | -13.0°C | 71.4% | 0hPa | 0V | 00:00:00 | 00:00:00 | 00:00:00 | |
| DL9RDZ-1 | 2026-08-30 23:09:23 | 63.98337 | -22.68181 | 304° | 26km/h | 3331m | 8.1m/s | -12.4°C | 70.8% | 0hPa | 0V | 00:00:00 | 00:00:00 | 00:00:00 | |
| DL9RDZ-1 | 2026-08-30 23:07:57 | 63.98181 | -22.67267 | 299° | 29km/h | 2822m | 7.4m/s | -8.7°C | 69.2% | 0hPa | 0V | 00:00:00 | 00:00:00 | 00:00:00 | |
| DL9RDZ-1 | 2026-08-30 23:07:36 | 63.98141 | -22.67043 | 291° | 35km/h | 2701m | 5.0m/s | -7.7°C | 67.3% | 0hPa | 0V | 00:00:00 | 00:00:00 | 00:00:00 | |
| DL9RDZ-1 | 2026-08-30 23:07:25 | 63.98127 | -22.66927 | 263° | 24km/h | 2641m | 5.2m/s | -7.2°C | 67.3% | 0hPa | 0V | 00:00:00 | 00:00:00 | 00:00:00 | |
| DL9RDZ-1 | 2026-08-30 23:07:14 | 63.98114 | -22.66788 | 288° | 26km/h | 2573m | 4.9m/s | -6.7°C | 72.0% | 0hPa | 0V | 00:00:00 | 00:00:00 | 00:00:00 | |
| DL9RDZ-1 | 2026-08-30 23:07:04 | 63.98103 | -22.66678 | 307° | 15km/h | 2519m | 5.0m/s | -6.3°C | 76.5% | 0hPa | 0V | 00:00:00 | 00:00:00 | 00:00:00 | |
| DL9RDZ-1 | 2026-08-30 23:06:53 | 63.98082 | -22.66583 | 271° | 11km/h | 2462m | 6.4m/s | -6.3°C | 81.7% | 0hPa | 0V | 00:00:00 | 00:00:00 | 00:00:00 | |
| DL9RDZ-1 | 2026-08-30 23:06:42 | 63.98042 | -22.66461 | 307° | 16km/h | 2400m | 4.9m/s | -6.2°C | 86.4% | 0hPa | 0V | 00:00:00 | 00:00:00 | 00:00:00 | |
| DL9RDZ-1 | 2026-08-30 23:06:21 | 63.97955 | -22.66214 | 302° | 31km/h | 2283m | 6.7m/s | -5.5°C | 87.2% | 0hPa | 0V | 00:00:00 | 00:00:00 | 00:00:00 | |
| DL9RDZ-1 | 2026-08-30 23:06:10 | 63.97920 | -22.66090 | 313° | 27km/h | 2220m | 5.2m/s | -5.1°C | 88.0% | 0hPa | 0V | 00:00:00 | 00:00:00 | 00:00:00 | |
| DL9RDZ-1 | 2026-08-30 23:06:00 | 63.97882 | -22.65957 | 300° | 29km/h | 2160m | 8.4m/s | -4.8°C | 84.9% | 0hPa | 0V | 00:00:00 | 00:00:00 | 00:00:00 | |
| DL9RDZ-1 | 2026-08-30 23:05:50 | 63.97824 | -22.65828 | 317° | 27km/h | 2099m | 7.2m/s | -4.5°C | 83.4% | 0hPa | 0V | 00:00:00 | 00:00:00 | 00:00:00 | |
| DL9RDZ-1 | 2026-08-30 23:05:38 | 63.97766 | -22.65679 | 314° | 42km/h | 2028m | 5.4m/s | -4.3°C | 91.0% | 0hPa | 0V | 00:00:00 | 00:00:00 | 00:00:00 | |
| DL9RDZ-1 | 2026-08-30 23:05:27 | 63.97707 | -22.65549 | 305° | 37km/h | 1967m | 6.3m/s | -3.9°C | 90.8% | 0hPa | 0V | 00:00:00 | 00:00:00 | 00:00:00 | |
| DL9RDZ-1 | 2026-08-30 23:05:16 | 63.97661 | -22.65392 | 308° | 33km/h | 1898m | 7.5m/s | -3.3°C | 88.2% | 0hPa | 0V | 00:00:00 | 00:00:00 | 00:00:00 | |
| DL9RDZ-1 | 2026-08-30 23:05:06 | 63.97639 | -22.65232 | 282° | 26km/h | 1836m | 3.2m/s | 0°C | 0% | 0hPa | 0V | 00:00:00 | 00:00:00 | 00:00:00 | |
| DL9RDZ-1 | 2026-08-30 23:04:55 | 63.97599 | -22.65084 | 311° | 31km/h | 1767m | 6.7m/s | 0°C | 0% | 0hPa | 0V | 00:00:00 | 00:00:00 | 00:00:00 | |
| DL9RDZ-1 | 2026-08-30 23:04:44 | 63.97543 | -22.64970 | 311° | 18km/h | 1702m | 5.5m/s | 0°C | 0% | 0hPa | 0V | 00:00:00 | 00:00:00 | 00:00:00 | |
| DL9RDZ-1 | 2026-08-30 23:04:34 | 63.97497 | -22.64842 | 315° | 22km/h | 1647m | 7.7m/s | 0°C | 0% | 0hPa | 0V | 00:00:00 | 00:00:00 | 00:00:00 | |
| DL9RDZ-1 | 2026-08-30 23:04:23 | 63.97452 | -22.64729 | 323° | 22km/h | 1579m | 5.3m/s | 0°C | 0% | 0hPa | 0V | 00:00:00 | 00:00:00 | 00:00:00 |